PORTS® Data Listing: 8531680 Sandy Hook, NJ

CO-OPS RAW PORTS DATA

************************      PRELIMINARY DATA      ************************** 

     THIS RAW DATA HAS NOT BEEN SUBJECT TO THE NATIONAL OCEAN SERVICE'S        
     QUALITY CONTROL OR QUALITY ASSURANCE PROCEDURES AND DOES NOT MEET         
     THE CRITERIA AND STANDARDS OF OFFICIAL NATIONAL OCEAN SERVICE             
     DATA.  IT IS RELEASED FOR LIMITED PUBLIC USE AS PRELIMINARY DATA TO       
     BE USED ONLY WITH APPROPRIATE CAUTION.                                    

************************      PRELIMINARY DATA      ************************** 


       CD   -   Calendar date
       T    -   Time
       TZ   -   Timezone
       PW   -   Predicted water level (feet above MLLW)
       OW   -   Observed water level (feet above MLLW)
       WS   -   Wind speed (knots)
       WD   -   Wind direction (degrees true)
       WG   -   Wind gust (knots)
       AT   -   Air temperature (degrees farenheit)
       WT   -   Water temperature (degrees farenheit)
       AP   -   Air pressure (millibars)
       SA   -   Salinty (PSU - Practical Salinity Units)
       SG   -   Specific gravity
       RH   -   Relative humidity
       AG   -   Air gap (feet)
       VI   -   Visibility (nautical miles)

       ** NOTE **
       A variable that has its data fields filled with "9"s, indicates that
       data was not collected for that sample period.
       **********


STATION NAME: Sandy Hook (8531680)
****************************************************************************************************
    CD       T    TZ    PW     OW    WS   WD   WG    AT    WT    AP    SA    SG     RH    AG   VI
****************************************************************************************************
2019/11/11 16:36 EST    3.27   4.04   10  160   12  56.1  53.6 1014.8 -9.9 -9.999 -99.9 -99.99 -9.99
2019/11/11 16:42 EST    3.37   4.14    9  157   12  55.9  53.8 1014.8 -9.9 -9.999 -99.9 -99.99 -9.99
2019/11/11 16:48 EST    3.48   4.26    8  153   11  55.9  53.8 1014.8 -9.9 -9.999 -99.9 -99.99 -9.99
2019/11/11 16:54 EST    3.57   4.33    7  153   10  55.8  53.8 1014.7 -9.9 -9.999 -99.9 -99.99 -9.99
2019/11/11 17:00 EST    3.67   4.43    8  158   10  55.8  53.8 1014.6 -9.9 -9.999 -99.9 -99.99 -9.99
2019/11/11 17:06 EST    3.76   4.50    9  159   11  55.8  53.6 1014.6 -9.9 -9.999 -99.9 -99.99 -9.99
2019/11/11 17:12 EST    3.85   4.63    8  157   11  55.8  53.8 1014.5 -9.9 -9.999 -99.9 -99.99 -9.99
2019/11/11 17:18 EST    3.94   4.70    9  157   10  55.6  53.8 1014.5 -9.9 -9.999 -99.9 -99.99 -9.99
2019/11/11 17:24 EST    4.02   4.79    8  159   10  55.4  53.6 1014.5 -9.9 -9.999 -99.9 -99.99 -9.99
2019/11/11 17:30 EST    4.10   4.84    9  157   11  55.4  53.6 1014.5 -9.9 -9.999 -99.9 -99.99 -9.99
2019/11/11 17:36 EST    4.17   4.94    9  161   12  55.4  53.4 1014.3 -9.9 -9.999 -99.9 -99.99 -9.99
2019/11/11 17:42 EST    4.24   5.03   10  161   12  55.6  53.6 1014.3 -9.9 -9.999 -99.9 -99.99 -9.99
2019/11/11 17:48 EST    4.31   5.07   11  164   13  55.6  53.2 1014.1 -9.9 -9.999 -99.9 -99.99 -9.99
2019/11/11 17:54 EST    4.37   5.14    9  161   13  56.1  53.1 1014.0 -9.9 -9.999 -99.9 -99.99 -9.99
2019/11/11 18:00 EST    4.43   5.20   10  162   12  55.9  52.9 1013.9 -9.9 -9.999 -99.9 -99.99 -9.99
2019/11/11 18:06 EST    4.49   5.27    9  162   12  55.8  52.9 1013.7 -9.9 -9.999 -99.9 -99.99 -9.99
2019/11/11 18:12 EST    4.53   5.30    9  162   11  55.6  52.9 1013.6 -9.9 -9.999 -99.9 -99.99 -9.99
2019/11/11 18:18 EST    4.58   5.34    8  158   10  55.6  52.7 1013.5 -9.9 -9.999 -99.9 -99.99 -9.99
2019/11/11 18:24 EST    4.62   5.39    8  157    9  55.2  52.7 1013.4 -9.9 -9.999 -99.9 -99.99 -9.99
2019/11/11 18:30 EST    4.65   5.42    8  158   10  55.0  52.7 1013.3 -9.9 -9.999 -99.9 -99.99 -9.99
2019/11/11 18:36 EST    4.68   5.43    9  160   10  55.4  52.5 1013.0 -9.9 -9.999 -99.9 -99.99 -9.99
2019/11/11 18:42 EST    4.70   5.46    9  154   12  55.4  52.5 1013.0 -9.9 -9.999 -99.9 -99.99 -9.99
2019/11/11 18:48 EST    4.71   5.51   10  156   13  55.4  52.5 1012.8 -9.9 -9.999 -99.9 -99.99 -9.99
2019/11/11 18:54 EST    4.72   5.49   11  159   14  55.4  52.5 1012.8 -9.9 -9.999 -99.9 -99.99 -9.99
2019/11/11 19:00 EST    4.72   5.52   10  159   14  55.6  52.5 1012.8 -9.9 -9.999 -99.9 -99.99 -9.99
2019/11/11 19:06 EST    4.72   5.52   12  166   14  55.4  52.5 1012.7 -9.9 -9.999 -99.9 -99.99 -9.99
2019/11/11 19:12 EST    4.70   5.51   13  168   17  55.6  52.5 1012.7 -9.9 -9.999 -99.9 -99.99 -9.99
2019/11/11 19:18 EST    4.69   5.49   14  169   16  55.4  52.3 1012.6 -9.9 -9.999 -99.9 -99.99 -9.99
2019/11/11 19:24 EST    4.66   5.49   13  170   17  55.4  52.3 1012.6 -9.9 -9.999 -99.9 -99.99 -9.99
2019/11/11 19:30 EST    4.63   5.43   12  165   14  55.2  52.3 1012.4 -9.9 -9.999 -99.9 -99.99 -9.99
2019/11/11 19:36 EST    4.59   5.38   10  166   12  55.4  52.2 1012.2 -9.9 -9.999 -99.9 -99.99 -9.99
2019/11/11 19:42 EST    4.54   5.37   10  172   12  55.2  52.2 1012.2 -9.9 -9.999 -99.9 -99.99 -9.99
2019/11/11 19:48 EST    4.49   5.28   12  182   14  55.0  52.2 1012.2 -9.9 -9.999 -99.9 -99.99 -9.99
2019/11/11 19:54 EST    4.43   5.25   10  184   14  55.8  52.2 1012.2 -9.9 -9.999 -99.9 -99.99 -9.99
2019/11/11 20:00 EST    4.36   5.19    8  194   12  55.9  52.2 1012.2 -9.9 -9.999 -99.9 -99.99 -9.99
2019/11/11 20:06 EST    4.29   5.15    7  199   11  55.9  52.2 1012.2 -9.9 -9.999 -99.9 -99.99 -9.99
2019/11/11 20:12 EST    4.21   5.05    7  194    9  55.9  52.0 1012.3 -9.9 -9.999 -99.9 -99.99 -9.99
2019/11/11 20:18 EST    4.13   4.98    8  193   10  55.9  52.0 1012.2 -9.9 -9.999 -99.9 -99.99 -9.99
2019/11/11 20:24 EST    4.04   4.92    9  195   12  55.8  52.0 1012.2 -9.9 -9.999 -99.9 -99.99 -9.99
2019/11/11 20:30 EST    3.95   4.82   10  195   11  56.1  52.0 1012.2 -9.9 -9.999 -99.9 -99.99 -9.99
2019/11/11 20:36 EST    3.85   4.70    9  188   11  56.1  52.0 1012.0 -9.9 -9.999 -99.9 -99.99 -9.99
2019/11/11 20:42 EST    3.75   4.61    9  186   11  55.9  52.0 1012.0 -9.9 -9.999 -99.9 -99.99 -9.99
2019/11/11 20:48 EST    3.64   4.51   11  195   14  55.9  52.0 1011.9 -9.9 -9.999 -99.9 -99.99 -9.99
2019/11/11 20:54 EST    3.53   4.41   11  201   16  56.3  52.0 1011.9 -9.9 -9.999 -99.9 -99.99 -9.99
2019/11/11 21:00 EST    3.42   4.29   11  208   17  56.3  52.0 1011.9 -9.9 -9.999 -99.9 -99.99 -9.99
2019/11/11 21:06 EST    3.31   4.18   10  212   15  56.5  52.0 1012.0 -9.9 -9.999 -99.9 -99.99 -9.99
2019/11/11 21:12 EST    3.19   4.08   10  216   11  55.9  52.0 1011.9 -9.9 -9.999 -99.9 -99.99 -9.99
2019/11/11 21:18 EST    3.08   3.97   10  215   12  55.9  52.0 1012.0 -9.9 -9.999 -99.9 -99.99 -9.99
2019/11/11 21:24 EST    2.96   3.87   10  213   13  55.9  52.0 1012.0 -9.9 -9.999 -99.9 -99.99 -9.99
2019/11/11 21:30 EST    2.84   3.75   10  209   13  55.9  52.0 1011.9 -9.9 -9.999 -99.9 -99.99 -9.99
2019/11/11 21:36 EST    2.72   3.63    9  213   12  55.8  52.0 1011.9 -9.9 -9.999 -99.9 -99.99 -9.99
2019/11/11 21:42 EST    2.60   3.50    9  210   12  55.6  52.0 1011.9 -9.9 -9.999 -99.9 -99.99 -9.99
2019/11/11 21:48 EST    2.49   3.41   11  209   13  55.6  52.0 1011.8 -9.9 -9.999 -99.9 -99.99 -9.99
2019/11/11 21:54 EST    2.37   3.29   12  211   14  55.8  52.0 1011.7 -9.9 -9.999 -99.9 -99.99 -9.99
2019/11/11 22:00 EST    2.25   3.13   11  209   14  55.9  52.0 1011.7 -9.9 -9.999 -99.9 -99.99 -9.99
2019/11/11 22:06 EST    2.14   3.02   11  207   13  55.8  52.0 1011.5 -9.9 -9.999 -99.9 -99.99 -9.99
2019/11/11 22:12 EST    2.03   2.92   10  203   12  55.8  52.0 1011.3 -9.9 -9.999 -99.9 -99.99 -9.99
2019/11/11 22:18 EST    1.91   2.78   10  203   13  55.8  52.0 1011.2 -9.9 -9.999 -99.9 -99.99 -9.99
2019/11/11 22:24 EST    1.80   2.64   10  205   14  55.8  52.0 1011.0 -9.9 -9.999 -99.9 -99.99 -9.99
2019/11/11 22:30 EST    1.70   2.54   10  206   13  55.8  52.0 1011.0 -9.9 -9.999 -99.9 -99.99 -9.99
2019/11/11 22:36 EST    1.59   2.43   10  204   13  55.9  52.0 1010.9 -9.9 -9.999 -99.9 -99.99 -9.99
2019/11/11 22:42 EST    1.49   2.33   11  207   13  55.9  52.0 1010.8 -9.9 -9.999 -99.9 -99.99 -9.99
2019/11/11 22:48 EST    1.38   2.21   11  200   14  56.1  52.0 1010.7 -9.9 -9.999 -99.9 -99.99 -9.99
2019/11/11 22:54 EST    1.29   2.11   10  202   13  56.1  52.0 1010.5 -9.9 -9.999 -99.9 -99.99 -9.99
2019/11/11 23:00 EST    1.19   2.01    9  196   13  55.6  51.8 1010.4 -9.9 -9.999 -99.9 -99.99 -9.99
2019/11/11 23:06 EST    1.10   1.91   10  195   12  55.8  51.8 1010.3 -9.9 -9.999 -99.9 -99.99 -9.99
2019/11/11 23:12 EST    1.00   1.81   10  194   12  55.8  51.8 1010.2 -9.9 -9.999 -99.9 -99.99 -9.99
2019/11/11 23:18 EST    0.92   1.74   12  190   14  55.9  51.8 1010.1 -9.9 -9.999 -99.9 -99.99 -9.99
2019/11/11 23:24 EST    0.83   1.60   11  189   12  56.1  51.8 1009.9 -9.9 -9.999 -99.9 -99.99 -9.99
2019/11/11 23:30 EST    0.75   1.55   13  192   15  55.8  51.8 1009.9 -9.9 -9.999 -99.9 -99.99 -9.99
2019/11/11 23:36 EST    0.67   1.47   13  192   15  56.3  51.8 1009.8 -9.9 -9.999 -99.9 -99.99 -9.99
2019/11/11 23:42 EST    0.59   1.38   13  189   15  56.1  51.8 1009.7 -9.9 -9.999 -99.9 -99.99 -9.99
2019/11/11 23:48 EST    0.52   1.32   12  197   16  55.9  51.8 1009.5 -9.9 -9.999 -99.9 -99.99 -9.99
2019/11/11 23:54 EST    0.45   1.21   12  199   15  55.9  51.8 1009.5 -9.9 -9.999 -99.9 -99.99 -9.99
2019/11/12 00:00 EST    0.39   1.18   12  201   15  56.1  51.8 1009.4 -9.9 -9.999 -99.9 -99.99 -9.99
2019/11/12 00:06 EST    0.33   1.11   11  205   15  55.9  51.8 1009.3 -9.9 -9.999 -99.9 -99.99 -9.99
2019/11/12 00:12 EST    0.27   1.06   12  199   16  56.1  51.8 1009.1 -9.9 -9.999 -99.9 -99.99 -9.99
2019/11/12 00:18 EST    0.22   1.01   12  206   17  56.1  51.8 1009.0 -9.9 -9.999 -99.9 -99.99 -9.99
2019/11/12 00:24 EST    0.17   0.97   12  202   16  56.1  51.8 1008.8 -9.9 -9.999 -99.9 -99.99 -9.99
2019/11/12 00:30 EST    0.13   0.93   12  203   14  56.1  51.8 1008.6 -9.9 -9.999 -99.9 -99.99 -9.99
2019/11/12 00:36 EST    0.10   0.91   13  208   17  55.9  51.8 1008.6 -9.9 -9.999 -99.9 -99.99 -9.99
2019/11/12 00:42 EST    0.07   0.88   13  208   18  56.1  51.8 1008.6 -9.9 -9.999 -99.9 -99.99 -9.99
2019/11/12 00:48 EST    0.04   0.85   13  204   19  55.9  51.8 1008.6 -9.9 -9.999 -99.9 -99.99 -9.99
2019/11/12 00:54 EST    0.03   0.85   12  202   17  56.3  51.8 1008.4 -9.9 -9.999 -99.9 -99.99 -9.99
2019/11/12 01:00 EST    0.02   0.83   14  199   16  56.1  51.8 1008.2 -9.9 -9.999 -99.9 -99.99 -9.99
2019/11/12 01:06 EST    0.01   0.83   15  204   18  56.3  51.8 1008.0 -9.9 -9.999 -99.9 -99.99 -9.99
2019/11/12 01:12 EST    0.02   0.81   13  199   15  56.5  51.8 1007.9 -9.9 -9.999 -99.9 -99.99 -9.99
2019/11/12 01:18 EST    0.03   0.80   13  197   19  56.3  51.8 1007.8 -9.9 -9.999 -99.9 -99.99 -9.99
2019/11/12 01:24 EST    0.05   0.81   15  198   17  56.3  51.8 1007.6 -9.9 -9.999 -99.9 -99.99 -9.99
2019/11/12 01:30 EST    0.08   0.82   14  196   18  56.5  52.0 1007.5 -9.9 -9.999 -99.9 -99.99 -9.99
2019/11/12 01:36 EST    0.11   0.85   14  199   18  56.3  52.0 1007.3 -9.9 -9.999 -99.9 -99.99 -9.99
2019/11/12 01:42 EST    0.15   0.86   14  200   18  56.5  51.8 1007.3 -9.9 -9.999 -99.9 -99.99 -9.99
2019/11/12 01:48 EST    0.21   0.88   16  190   19  56.5  51.8 1007.3 -9.9 -9.999 -99.9 -99.99 -9.99
2019/11/12 01:54 EST    0.27   0.94   16  192   20  56.7  51.8 1007.1 -9.9 -9.999 -99.9 -99.99 -9.99
2019/11/12 02:00 EST    0.33   0.99   16  193   20  56.5  51.8 1007.0 -9.9 -9.999 -99.9 -99.99 -9.99
2019/11/12 02:06 EST    0.41   1.07   16  195   18  56.8  51.8 1006.8 -9.9 -9.999 -99.9 -99.99 -9.99
2019/11/12 02:12 EST    0.49   1.12   15  200   19  56.7  51.8 1006.9 -9.9 -9.999 -99.9 -99.99 -9.99
2019/11/12 02:18 EST    0.58   1.19   14  203   17  56.7  51.8 1006.9 -9.9 -9.999 -99.9 -99.99 -9.99
2019/11/12 02:24 EST    0.68   1.31   14  203   18  56.7  51.8 1006.7 -9.9 -9.999 -99.9 -99.99 -9.99
2019/11/12 02:30 EST    0.78   1.43   14  206   17  56.5  51.8 1006.8 -9.9 -9.999 -99.9 -99.99 -9.99
2019/11/12 02:36 EST    0.89   1.56   15  211   17  56.7  51.8 1006.9 -9.9 -9.999 -99.9 -99.99 -9.99
2019/11/12 02:42 EST    1.00   1.67   13  206   16  56.5  51.8 1006.9 -9.9 -9.999 -99.9 -99.99 -9.99
2019/11/12 02:48 EST    1.12   1.80   12  204   16  56.5  51.8 1006.4 -9.9 -9.999 -99.9 -99.99 -9.99
2019/11/12 02:54 EST    1.25   1.96   12  207   16  56.3  51.8 1006.3 -9.9 -9.999 -99.9 -99.99 -9.99
2019/11/12 03:00 EST    1.38   2.10   12  217   14  56.3  51.8 1006.4 -9.9 -9.999 -99.9 -99.99 -9.99
2019/11/12 03:06 EST    1.51   2.24   12  220   15  56.3  51.8 1006.4 -9.9 -9.999 -99.9 -99.99 -9.99
2019/11/12 03:12 EST    1.64   2.38   11  223   14  56.7  51.8 1006.3 -9.9 -9.999 -99.9 -99.99 -9.99
2019/11/12 03:18 EST    1.78   2.53   12  226   14  56.7  52.0 1006.2 -9.9 -9.999 -99.9 -99.99 -9.99
2019/11/12 03:24 EST    1.92   2.67   11  229   13  56.7  52.0 1006.5 -9.9 -9.999 -99.9 -99.99 -9.99
2019/11/12 03:30 EST    2.07   2.83   10  236   12  56.8  51.8 1006.4 -9.9 -9.999 -99.9 -99.99 -9.99
2019/11/12 03:36 EST    2.21   2.96    7  228   11  56.8  51.8 1006.2 -9.9 -9.999 -99.9 -99.99 -9.99
2019/11/12 03:42 EST    2.35   3.11    7  194   10  56.8  52.0 1005.8 -9.9 -9.999 -99.9 -99.99 -9.99
2019/11/12 03:48 EST    2.49   3.27    6  207    8  56.8  52.3 1005.2 -9.9 -9.999 -99.9 -99.99 -9.99
2019/11/12 03:54 EST    2.64   3.41    7  201    8  56.8  52.2 1005.4 -9.9 -9.999 -99.9 -99.99 -9.99
2019/11/12 04:00 EST    2.78   3.57    7  206   11  56.8  52.2 1005.5 -9.9 -9.999 -99.9 -99.99 -9.99
2019/11/12 04:06 EST    2.92   3.71   15  220   16  56.8  52.2 1005.5 -9.9 -9.999 -99.9 -99.99 -9.99
2019/11/12 04:12 EST    3.06   3.89   15  219   19  56.8  52.5 1006.6 -9.9 -9.999 -99.9 -99.99 -9.99
2019/11/12 04:18 EST    3.19   4.04   16  217   18  56.8  52.5 1006.4 -9.9 -9.999 -99.9 -99.99 -9.99
2019/11/12 04:24 EST    3.33   4.19   16  217   20  57.2  52.5 1006.1 -9.9 -9.999 -99.9 -99.99 -9.99
2019/11/12 04:30 EST    3.46   4.33   17  222   22  57.4  52.0 1006.1 -9.9 -9.999 -99.9 -99.99 -9.99
2019/11/12 04:36 EST    3.58   4.50   16  224   20  57.6  52.0 1006.2 -9.9 -9.999 -99.9 -99.99 -9.99
2019/11/12 04:42 EST    3.71   4.64   17  229   21  57.6  52.2 1006.1 -9.9 -9.999 -99.9 -99.99 -9.99
2019/11/12 04:48 EST    3.83   4.76   17  229   21  57.6  52.2 1006.0 -9.9 -9.999 -99.9 -99.99 -9.99
2019/11/12 04:54 EST    3.94   4.88   15  234   19  57.2  52.2 1006.1 -9.9 -9.999 -99.9 -99.99 -9.99
2019/11/12 05:00 EST    4.06   5.00   15  237   18  57.4  52.2 1006.0 -9.9 -9.999 -99.9 -99.99 -9.99
2019/11/12 05:06 EST    4.17   5.09   15  239   17  57.2  52.2 1006.1 -9.9 -9.999 -99.9 -99.99 -9.99
2019/11/12 05:12 EST    4.27   5.18   16  240   18  57.4  52.2 1006.1 -9.9 -9.999 -99.9 -99.99 -9.99
2019/11/12 05:18 EST    4.37   5.26   14  239   16  57.2  52.2 1006.2 -9.9 -9.999 -99.9 -99.99 -9.99
2019/11/12 05:24 EST    4.47   5.34   15  235   18  57.2  52.2 1006.2 -9.9 -9.999 -99.9 -99.99 -9.99
2019/11/12 05:30 EST    4.56   5.40   14  235   18  57.2  52.0 1006.1 -9.9 -9.999 -99.9 -99.99 -9.99
2019/11/12 05:36 EST    4.65   5.45   16  233   18  57.0  52.0 1006.0 -9.9 -9.999 -99.9 -99.99 -9.99
2019/11/12 05:42 EST    4.73   5.52   15  230   17  57.4  52.0 1006.1 -9.9 -9.999 -99.9 -99.99 -9.99
2019/11/12 05:48 EST    4.81   5.57   16  232   17  57.2  52.0 1006.1 -9.9 -9.999 -99.9 -99.99 -9.99
2019/11/12 05:54 EST    4.88   5.60   15  231   20  57.0  52.2 1006.0 -9.9 -9.999 -99.9 -99.99 -9.99
2019/11/12 06:00 EST    4.95   5.64   14  230   16  57.0  52.2 1006.0 -9.9 -9.999 -99.9 -99.99 -9.99
2019/11/12 06:06 EST    5.02   5.69   15  229   19  57.0  52.2 1006.0 -9.9 -9.999 -99.9 -99.99 -9.99
2019/11/12 06:12 EST    5.08   5.70   16  228   18  56.8  52.2 1006.2 -9.9 -9.999 -99.9 -99.99 -9.99
2019/11/12 06:18 EST    5.13   5.73   15  231   19  57.0  52.0 1006.4 -9.9 -9.999 -99.9 -99.99 -9.99
2019/11/12 06:24 EST    5.18   5.75   14  229   18  56.8  52.0 1006.5 -9.9 -9.999 -99.9 -99.99 -9.99
2019/11/12 06:30 EST    5.23   5.78   16  226   18  56.8  52.0 1006.5 -9.9 -9.999 -99.9 -99.99 -9.99
2019/11/12 06:36 EST    5.27   5.78   14  228   20  57.0  52.0 1006.7 -9.9 -9.999 -99.9 -99.99 -9.99
2019/11/12 06:42 EST    5.30   5.80   15  244   18  57.0  52.0 1006.4 -9.9 -9.999 -99.9 -99.99 -9.99
2019/11/12 06:48 EST    5.33   5.79   16  248   19  57.2  52.0 1006.3 -9.9 -9.999 -99.9 -99.99 -9.99
2019/11/12 06:54 EST    5.35   5.76   18  245   21  57.4  52.0 1006.4 -9.9 -9.999 -99.9 -99.99 -9.99
2019/11/12 07:00 EST    5.37   5.77   20  249   26  57.2  52.0 1006.6 -9.9 -9.999 -99.9 -99.99 -9.99
2019/11/12 07:06 EST    5.38   5.74   22  254   27  57.0  52.0 1006.9 -9.9 -9.999 -99.9 -99.99 -9.99
2019/11/12 07:12 EST    5.38   5.72   18  251   22  56.1  52.0 1007.0 -9.9 -9.999 -99.9 -99.99 -9.99
2019/11/12 07:18 EST    5.38   5.69   19  252   21  55.4  52.0 1007.1 -9.9 -9.999 -99.9 -99.99 -9.99
2019/11/12 07:24 EST    5.37   5.65   16  270   24  55.4  52.0 1007.0 -9.9 -9.999 -99.9 -99.99 -9.99
2019/11/12 07:30 EST    5.35   5.60   18  269   23  55.2  52.0 1006.8 -9.9 -9.999 -99.9 -99.99 -9.99
2019/11/12 07:36 EST    5.33   5.59   13  273   22  54.9  52.0 1006.9 -9.9 -9.999 -99.9 -99.99 -9.99
2019/11/12 07:42 EST    5.30   5.55   16  276   23  54.3  52.0 1006.9 -9.9 -9.999 -99.9 -99.99 -9.99
2019/11/12 07:48 EST    5.27   5.49   15  275   20  53.8  52.0 1006.9 -9.9 -9.999 -99.9 -99.99 -9.99
2019/11/12 07:54 EST    5.22   5.43   15  277   21  53.6  52.0 1007.2 -9.9 -9.999 -99.9 -99.99 -9.99
2019/11/12 08:00 EST    5.17   5.40   13  276   19  53.2  52.0 1007.3 -9.9 -9.999 -99.9 -99.99 -9.99
2019/11/12 08:06 EST    5.12   5.31   12  279   19  53.1  52.0 1007.5 -9.9 -9.999 -99.9 -99.99 -9.99
2019/11/12 08:12 EST    5.06   5.22   19  290   24  52.7  52.0 1007.6 -9.9 -9.999 -99.9 -99.99 -9.99
2019/11/12 08:18 EST    4.99   5.17   22  289   27  52.7  52.0 1007.6 -9.9 -9.999 -99.9 -99.99 -9.99
2019/11/12 08:24 EST    4.91   5.08   19  302   25  52.3  52.0 1007.7 -9.9 -9.999 -99.9 -99.99 -9.99
2019/11/12 08:30 EST    4.83   5.03   23  320   30  52.0  52.0 1007.8 -9.9 -9.999 -99.9 -99.99 -9.99
2019/11/12 08:36 EST    4.75   4.96   21  323   27  48.2  52.0 1008.2 -9.9 -9.999 -99.9 -99.99 -9.99
2019/11/12 08:42 EST    4.66   4.95   19  337   25  46.9  52.0 1008.3 -9.9 -9.999 -99.9 -99.99 -9.99
2019/11/12 08:48 EST    4.56   4.78   21  331   25  45.3  52.0 1008.4 -9.9 -9.999 -99.9 -99.99 -9.99
2019/11/12 08:54 EST    4.46   4.76   21  327   25  44.8  52.0 1008.5 -9.9 -9.999 -99.9 -99.99 -9.99
2019/11/12 09:00 EST    4.36   4.70   21  327   25  44.4  52.0 1008.7 -9.9 -9.999 -99.9 -99.99 -9.99
2019/11/12 09:06 EST    4.25   4.60   23  327   26  43.9  52.0 1008.9 -9.9 -9.999 -99.9 -99.99 -9.99
2019/11/12 09:12 EST    4.14   4.43   20  325   27  43.5  51.8 1009.2 -9.9 -9.999 -99.9 -99.99 -9.99
2019/11/12 09:18 EST    4.03   4.32   17  332   23  43.2  51.8 1009.4 -9.9 -9.999 -99.9 -99.99 -9.99
2019/11/12 09:24 EST    3.91   4.21   18  334   22  42.6  51.8 1009.5 -9.9 -9.999 -99.9 -99.99 -9.99
2019/11/12 09:30 EST    3.79   4.03   19  330   24  41.9  51.8 1009.5 -9.9 -9.999 -99.9 -99.99 -9.99
2019/11/12 09:36 EST    3.67   3.88   17  324   21  41.5  51.8 1009.7 -9.9 -9.999 -99.9 -99.99 -9.99
2019/11/12 09:42 EST    3.55   3.80   15  329   23  41.7  51.8 1010.1 -9.9 -9.999 -99.9 -99.99 -9.99
2019/11/12 09:48 EST    3.43   3.62   16  317   19  41.0  51.8 1010.0 -9.9 -9.999 -99.9 -99.99 -9.99
2019/11/12 09:54 EST    3.31   3.50   17  321   21  41.4  51.8 1010.1 -9.9 -9.999 -99.9 -99.99 -9.99
2019/11/12 10:00 EST    3.19   3.42   19  313   23  41.0  52.7 1010.2 -9.9 -9.999 -99.9 -99.99 -9.99
2019/11/12 10:06 EST    3.06   3.29   18  311   22  40.8  54.3 1010.5 -9.9 -9.999 -99.9 -99.99 -9.99
2019/11/12 10:12 EST    2.94   3.16   19  310   24  40.8  54.3 1010.5 -9.9 -9.999 -99.9 -99.99 -9.99
2019/11/12 10:18 EST    2.82   3.07   21  312   26  41.0  54.7 1010.7 -9.9 -9.999 -99.9 -99.99 -9.99
2019/11/12 10:24 EST    2.70   2.99   24  304   26  41.0  54.7 1010.9 -9.9 -9.999 -99.9 -99.99 -9.99
2019/11/12 10:30 EST    2.58   2.87   22  306   30  40.6  54.7 1011.0 -9.9 -9.999 -99.9 -99.99 -9.99
2019/11/12 10:36 EST    2.46   2.72   24  305   28  40.6  54.5 1011.3 -9.9 -9.999 -99.9 -99.99 -9.99
2019/11/12 10:42 EST    2.35   2.61   21  317   27  40.5  54.5 1011.5 -9.9 -9.999 -99.9 -99.99 -9.99
2019/11/12 10:48 EST    2.23   2.50   20  319   25  40.1  54.7 1011.7 -9.9 -9.999 -99.9 -99.99 -9.99
2019/11/12 10:54 EST    2.12   2.37   19  315   24  39.9  54.9 1011.8 -9.9 -9.999 -99.9 -99.99 -9.99
2019/11/12 11:00 EST    2.01   2.23   22  309   26  39.4  54.9 1011.9 -9.9 -9.999 -99.9 -99.99 -9.99
2019/11/12 11:06 EST    1.89   2.12   23  311   28  39.6  54.9 1012.1 -9.9 -9.999 -99.9 -99.99 -9.99
2019/11/12 11:12 EST    1.79   1.97   24  312   29  39.6  54.9 1012.0 -9.9 -9.999 -99.9 -99.99 -9.99
2019/11/12 11:18 EST    1.68   1.88   27  314   32  39.2  54.9 1012.2 -9.9 -9.999 -99.9 -99.99 -9.99
2019/11/12 11:24 EST    1.57   1.76   27  314   33  38.5  54.9 1012.3 -9.9 -9.999 -99.9 -99.99 -9.99
2019/11/12 11:30 EST    1.47   1.65   22  319   30  38.5  54.9 1012.3 -9.9 -9.999 -99.9 -99.99 -9.99
2019/11/12 11:36 EST    1.37   1.53   23  316   28  38.7  54.9 1012.4 -9.9 -9.999 -99.9 -99.99 -9.99
2019/11/12 11:42 EST    1.27   1.43   18  318   24  38.1  54.9 1012.3 -9.9 -9.999 -99.9 -99.99 -9.99
2019/11/12 11:48 EST    1.18   1.34   19  316   24  38.5  54.7 1012.3 -9.9 -9.999 -99.9 -99.99 -9.99
2019/11/12 11:54 EST    1.08   1.24   24  306   29  38.5  54.5 1012.6 -9.9 -9.999 -99.9 -99.99 -9.99
2019/11/12 12:00 EST    0.99   1.14   23  303   30  38.8  54.3 1012.8 -9.9 -9.999 -99.9 -99.99 -9.99
2019/11/12 12:06 EST    0.90   1.01   22  306   28  37.9  54.1 1012.5 -9.9 -9.999 -99.9 -99.99 -9.99
2019/11/12 12:12 EST    0.82   0.94   22  314   27  37.9  54.1 1012.7 -9.9 -9.999 -99.9 -99.99 -9.99
2019/11/12 12:18 EST    0.73   0.84   23  309   28  36.3  54.1 1012.9 -9.9 -9.999 -99.9 -99.99 -9.99
2019/11/12 12:24 EST    0.65   0.77   24  302   27  35.8  54.1 1013.1 -9.9 -9.999 -99.9 -99.99 -9.99
2019/11/12 12:30 EST    0.58   0.68   24  305   29  35.8  54.1 1013.1 -9.9 -9.999 -99.9 -99.99 -9.99
2019/11/12 12:36 EST    0.50   0.56   22  310   28  34.7  54.1 1013.1 -9.9 -9.999 -99.9 -99.99 -9.99
2019/11/12 12:42 EST    0.43   0.47   22  312   28  34.5  54.1 1013.2 -9.9 -9.999 -99.9 -99.99 -9.99
2019/11/12 12:48 EST    0.37   0.33   24  313   29  35.2  53.8 1013.1 -9.9 -9.999 -99.9 -99.99 -9.99
2019/11/12 12:54 EST    0.31   0.27   23  317   31  36.1  53.8 1013.0 -9.9 -9.999 -99.9 -99.99 -9.99
2019/11/12 13:00 EST    0.25   0.19   25  310   30  36.3  53.6 1013.1 -9.9 -9.999 -99.9 -99.99 -9.99
2019/11/12 13:06 EST    0.20   0.11   21  316   27  36.3  53.6 1013.2 -9.9 -9.999 -99.9 -99.99 -9.99
2019/11/12 13:12 EST    0.16   0.03   19  320   24  36.3  53.6 1013.1 -9.9 -9.999 -99.9 -99.99 -9.99
2019/11/12 13:18 EST    0.12  -0.01   22  318   26  36.1  53.4 1013.2 -9.9 -9.999 -99.9 -99.99 -9.99
2019/11/12 13:24 EST    0.09  -0.04   21  317   27  35.8  53.4 1013.2 -9.9 -9.999 -99.9 -99.99 -9.99
2019/11/12 13:30 EST    0.06  -0.07   20  314   31  35.6  53.2 1013.2 -9.9 -9.999 -99.9 -99.99 -9.99
2019/11/12 13:36 EST    0.05  -0.10   25  310   29  35.4  53.4 1013.4 -9.9 -9.999 -99.9 -99.99 -9.99
2019/11/12 13:42 EST    0.03  -0.12   26  305   31  35.2  53.4 1013.4 -9.9 -9.999 -99.9 -99.99 -9.99
2019/11/12 13:48 EST    0.03  -0.14   21  330   31  35.8  53.4 1013.5 -9.9 -9.999 -99.9 -99.99 -9.99
2019/11/12 13:54 EST    0.04  -0.15   26  329   32  34.9  53.4 1013.7 -9.9 -9.999 -99.9 -99.99 -9.99
2019/11/12 14:00 EST    0.05  -0.17   23  322   29  34.5  53.4 1013.7 -9.9 -9.999 -99.9 -99.99 -9.99
2019/11/12 14:06 EST    0.07  -0.18   26  318   31  34.5  52.9 1013.8 -9.9 -9.999 -99.9 -99.99 -9.99
2019/11/12 14:12 EST    0.09  -0.20   24  323   30  34.0  53.2 1014.0 -9.9 -9.999 -99.9 -99.99 -9.99
2019/11/12 14:18 EST    0.13  -0.18   22  317   30  34.0  52.7 1014.0 -9.9 -9.999 -99.9 -99.99 -9.99
2019/11/12 14:24 EST    0.17  -0.16   20  321   28  34.9  51.8 1014.3 -9.9 -9.999 -99.9 -99.99 -9.99
2019/11/12 14:30 EST    0.22  -0.15   24  323   29  34.5  52.2 1014.2 -9.9 -9.999 -99.9 -99.99 -9.99
2019/11/12 14:36 EST    0.28  -0.13   21  322   27  34.0  52.7 1014.3 -9.9 -9.999 -99.9 -99.99 -9.99
2019/11/12 14:42 EST    0.35  -0.08   19  330   25  33.6  52.5 1014.4 -9.9 -9.999 -99.9 -99.99 -9.99
2019/11/12 14:48 EST    0.42  -0.02   23  318   30  33.6  52.5 1014.4 -9.9 -9.999 -99.9 -99.99 -9.99
2019/11/12 14:54 EST    0.50   0.02   23  315   28  33.8  52.5 1014.7 -9.9 -9.999 -99.9 -99.99 -9.99
2019/11/12 15:00 EST    0.59   0.10   23  320   31  34.0  52.2 1014.7 -9.9 -9.999 -99.9 -99.99 -9.99
2019/11/12 15:06 EST    0.68   0.17   23  321   27  34.0  51.8 1014.7 -9.9 -9.999 -99.9 -99.99 -9.99
2019/11/12 15:12 EST    0.78   0.24   18  319   26  33.8  51.8 1014.8 -9.9 -9.999 -99.9 -99.99 -9.99
2019/11/12 15:18 EST    0.89   0.33   19  327   28  34.3  51.8 1014.8 -9.9 -9.999 -99.9 -99.99 -9.99
2019/11/12 15:24 EST    0.99   0.45   19  327   24  33.8  51.6 1015.0 -9.9 -9.999 -99.9 -99.99 -9.99
2019/11/12 15:30 EST    1.11   0.54   20  324   29  33.8  51.6 1015.0 -9.9 -9.999 -99.9 -99.99 -9.99
2019/11/12 15:36 EST    1.22   0.66   20  334   26  34.0  51.6 1014.9 -9.9 -9.999 -99.9 -99.99 -9.99
2019/11/12 15:42 EST    1.34   0.78   19  334   25  33.8  51.6 1015.0 -9.9 -9.999 -99.9 -99.99 -9.99
2019/11/12 15:48 EST    1.47   0.93   20  323   26  34.0  51.6 1015.2 -9.9 -9.999 -99.9 -99.99 -9.99
2019/11/12 15:54 EST    1.59   1.07   22  323   29  34.0  51.6 1015.2 -9.9 -9.999 -99.9 -99.99 -9.99
2019/11/12 16:00 EST    1.72   1.21   22  318   27  34.2  51.6 1015.3 -9.9 -9.999 -99.9 -99.99 -9.99
2019/11/12 16:06 EST    1.85   1.36   21  326   27  34.2  51.6 1015.3 -9.9 -9.999 -99.9 -99.99 -9.99
2019/11/12 16:12 EST    1.97   1.52   19  324   24  33.8  51.6 1015.6 -9.9 -9.999 -99.9 -99.99 -9.99
2019/11/12 16:18 EST    2.10   1.68   19  327   27  34.0  51.4 1015.6 -9.9 -9.999 -99.9 -99.99 -9.99
2019/11/12 16:24 EST    2.23   1.85   17  324   26  34.3  51.6 1015.8 -9.9 -9.999 -99.9 -99.99 -9.99
2019/11/12 16:30 EST    2.36   2.02   20  317   25  34.3  51.4 1016.1 -9.9 -9.999 -99.9 -99.99 -9.99
2019/11/12 16:36 EST    2.48   2.19   22  318   31  34.3  51.4 1016.1 -9.9 -9.999 -99.9 -99.99 -9.99
2019/11/12 16:42 EST    2.61   2.37   22  322   29  34.5  51.4 1016.2 -9.9 -9.999 -99.9 -99.99 -9.99
2019/11/12 16:48 EST    2.73   2.54   26  319   31  34.2  51.4 1016.3 -9.9 -9.999 -99.9 -99.99 -9.99
2019/11/12 16:54 EST    2.85   2.69   23  323   30  34.0  51.4 1016.6 -9.9 -9.999 -99.9 -99.99 -9.99
2019/11/12 17:00 EST    2.97   2.89   19  331   33  34.0  51.4 1016.6 -9.9 -9.999 -99.9 -99.99 -9.99
2019/11/12 17:06 EST    3.08   3.05   25  321   32  33.8  51.4 1016.8 -9.9 -9.999 -99.9 -99.99 -9.99
2019/11/12 17:12 EST    3.19   3.22   22  325   29  34.2  51.4 1016.8 -9.9 -9.999 -99.9 -99.99 -9.99
2019/11/12 17:18 EST    3.30   3.39   26  320   31  34.2  51.4 1017.1 -9.9 -9.999 -99.9 -99.99 -9.99
2019/11/12 17:24 EST    3.41   3.53   20  333   28  33.8  51.4 1017.1 -9.9 -9.999 -99.9 -99.99 -9.99
2019/11/12 17:30 EST    3.51   3.69   24  327   27  33.4  51.4 1017.2 -9.9 -9.999 -99.9 -99.99 -9.99
2019/11/12 17:36 EST    3.61   3.82   23  321   29  33.6  51.4 1017.4 -9.9 -9.999 -99.9 -99.99 -9.99
2019/11/12 17:42 EST    3.71   3.94   21  333   27  33.6  51.4 1017.4 -9.9 -9.999 -99.9 -99.99 -9.99
2019/11/12 17:48 EST    3.80   4.08   21  328   27  33.4  51.4 1017.4 -9.9 -9.999 -99.9 -99.99 -9.99
2019/11/12 17:54 EST    3.88   4.24   21  324   29  33.3  51.4 1017.6 -9.9 -9.999 -99.9 -99.99 -9.99
2019/11/12 18:00 EST    3.97   4.32   19  326   28  33.6  51.6 1017.8 -9.9 -9.999 -99.9 -99.99 -9.99
2019/11/12 18:06 EST    4.05   4.41   22  318   27  33.8  51.6 1017.9 -9.9 -9.999 -99.9 -99.99 -9.99
2019/11/12 18:12 EST    4.12   4.54   23  318   27  33.8  51.6 1018.0 -9.9 -9.999 -99.9 -99.99 -9.99
2019/11/12 18:18 EST    4.19   4.66   19  331   26  33.6  51.4 1018.0 -9.9 -9.999 -99.9 -99.99 -9.99
2019/11/12 18:24 EST    4.26   4.72   21  325   26  33.1  51.4 1018.1 -9.9 -9.999 -99.9 -99.99 -9.99
2019/11/12 18:30 EST    4.32   4.81   19  322   24  33.6  51.4 1018.2 -9.9 -9.999 -99.9 -99.99 -9.99
2019/11/12 18:36 EST    4.38   4.94   17  322   23  33.6  51.4 1018.5 -9.9 -9.999 -99.9 -99.99 -9.99
2019/11/12 18:42 EST    4.43   5.02   19  332   25  33.4  52.2 1018.6 -9.9 -9.999 -99.9 -99.99 -9.99
2019/11/12 18:48 EST    4.48   5.10   24  334   32  32.7  52.5 1018.8 -9.9 -9.999 -99.9 -99.99 -9.99
2019/11/12 18:54 EST    4.52   5.14   20  340   31  32.5  52.7 1018.9 -9.9 -9.999 -99.9 -99.99 -9.99
2019/11/12 19:00 EST    4.56   5.19   24  328   30  32.4  53.1 1019.1 -9.9 -9.999 -99.9 -99.99 -9.99
2019/11/12 19:06 EST    4.59   5.19   24  325   30  32.9  53.1 1019.2 -9.9 -9.999 -99.9 -99.99 -9.99
2019/11/12 19:12 EST    4.62   5.20   22  325   28  32.4  53.1 1019.3 -9.9 -9.999 -99.9 -99.99 -9.99
2019/11/12 19:18 EST    4.64   5.16   21  319   27  32.4  53.1 1019.3 -9.9 -9.999 -99.9 -99.99 -9.99
2019/11/12 19:24 EST    4.65   5.21   21  323   27  32.5  53.1 1019.3 -9.9 -9.999 -99.9 -99.99 -9.99
2019/11/12 19:30 EST    4.66   5.13   22  324   29  32.5  53.1 1019.4 -9.9 -9.999 -99.9 -99.99 -9.99
2019/11/12 19:36 EST    4.67   5.09   21  325   30  31.6  52.9 1019.5 -9.9 -9.999 -99.9 -99.99 -9.99
2019/11/12 19:42 EST    4.66   5.04   24  327   30  31.6  52.9 1019.5 -9.9 -9.999 -99.9 -99.99 -9.99
2019/11/12 19:48 EST    4.65   4.91   22  329   29  31.3  53.1 1019.6 -9.9 -9.999 -99.9 -99.99 -9.99
2019/11/12 19:54 EST    4.64   4.87   20  334   30  31.1  52.9 1019.7 -9.9 -9.999 -99.9 -99.99 -9.99
2019/11/12 20:00 EST    4.61   4.72   20  325   26  30.7  52.9 1019.8 -9.9 -9.999 -99.9 -99.99 -9.99
2019/11/12 20:06 EST    4.59   4.67   20  316   27  31.3  52.9 1019.9 -9.9 -9.999 -99.9 -99.99 -9.99
2019/11/12 20:12 EST    4.55   4.56   22  323   27  31.5  52.9 1020.1 -9.9 -9.999 -99.9 -99.99 -9.99
2019/11/12 20:18 EST    4.51   4.45   20  327   26  31.1  52.9 1020.2 -9.9 -9.999 -99.9 -99.99 -9.99
2019/11/12 20:24 EST    4.46   4.33   19  332   25  30.7  52.9 1020.3 -9.9 -9.999 -99.9 -99.99 -9.99
2019/11/12 20:30 EST    4.40   4.24   23  319   30  30.4  52.9 1020.5 -9.9 -9.999 -99.9 -99.99 -9.99
2019/11/12 20:36 EST    4.34   4.10   24  326   28  30.7  52.9 1020.6 -9.9 -9.999 -99.9 -99.99 -9.99
2019/11/12 20:42 EST    4.27   3.95   18  323   29  30.0  52.9 1020.7 -9.9 -9.999 -99.9 -99.99 -9.99
2019/11/12 20:48 EST    4.20   3.86   20  332   27  29.5  52.7 1020.9 -9.9 -9.999 -99.9 -99.99 -9.99
2019/11/12 20:54 EST    4.12   3.76   18  324   25  29.5  52.7 1020.9 -9.9 -9.999 -99.9 -99.99 -9.99
2019/11/12 21:00 EST    4.03   3.65   22  323   30  30.0  52.7 1020.9 -9.9 -9.999 -99.9 -99.99 -9.99
2019/11/12 21:06 EST    3.94   3.48   22  322   29  29.8  52.7 1020.9 -9.9 -9.999 -99.9 -99.99 -9.99
2019/11/12 21:12 EST    3.85   3.41   22  336   29  29.5  52.7 1021.0 -9.9 -9.999 -99.9 -99.99 -9.99
2019/11/12 21:18 EST    3.75   3.26   19  335   29  28.8  52.9 1021.2 -9.9 -9.999 -99.9 -99.99 -9.99
2019/11/12 21:24 EST    3.65   3.15   24  322   30  28.8  52.9 1021.3 -9.9 -9.999 -99.9 -99.99 -9.99
2019/11/12 21:30 EST    3.54   3.05   21  326   31  29.3  52.9 1021.3 -9.9 -9.999 -99.9 -99.99 -9.99
2019/11/12 21:36 EST    3.43   2.89   29  328   35  29.3  51.8 1021.5 -9.9 -9.999 -99.9 -99.99 -9.99
2019/11/12 21:42 EST    3.32   2.75   23  331   33  28.4  51.4 1021.7 -9.9 -9.999 -99.9 -99.99 -9.99
2019/11/12 21:48 EST    3.21   2.59   18  341   29  28.2  51.8 1021.7 -9.9 -9.999 -99.9 -99.99 -9.99
2019/11/12 21:54 EST    3.09   2.52   20  324   27  27.9  52.0 1021.8 -9.9 -9.999 -99.9 -99.99 -9.99
2019/11/12 22:00 EST    2.97   2.38   21  321   24  28.6  51.4 1021.8 -9.9 -9.999 -99.9 -99.99 -9.99
2019/11/12 22:06 EST    2.85   2.26   17  346   26  28.2  51.3 1021.8 -9.9 -9.999 -99.9 -99.99 -9.99
2019/11/12 22:12 EST    2.74   2.16   18  320   22  27.5  51.3 1021.7 -9.9 -9.999 -99.9 -99.99 -9.99
2019/11/12 22:18 EST    2.62   2.05   22  327   29  28.2  51.1 1021.7 -9.9 -9.999 -99.9 -99.99 -9.99
2019/11/12 22:24 EST    2.50   1.97   21  324   29  27.9  51.3 1021.7 -9.9 -9.999 -99.9 -99.99 -9.99
2019/11/12 22:30 EST    2.38   1.82   25  318   33  28.0  51.3 1021.8 -9.9 -9.999 -99.9 -99.99 -9.99
2019/11/12 22:36 EST    2.26   1.72   21  321   27  27.7  51.1 1022.0 -9.9 -9.999 -99.9 -99.99 -9.99
2019/11/12 22:42 EST    2.15   1.72   23  321   28  27.7  51.1 1022.0 -9.9 -9.999 -99.9 -99.99 -9.99
2019/11/12 22:48 EST    2.03   1.62   23  326   31  27.5  51.1 1022.0 -9.9 -9.999 -99.9 -99.99 -9.99
2019/11/12 22:54 EST    1.92   1.50   24  326   30  26.6  51.1 1022.1 -9.9 -9.999 -99.9 -99.99 -9.99
2019/11/12 23:00 EST    1.81   1.39   22  327   31  27.1  51.1 1022.2 -9.9 -9.999 -99.9 -99.99 -9.99
2019/11/12 23:06 EST    1.70   1.36   26  324   34  26.6  51.1 1022.2 -9.9 -9.999 -99.9 -99.99 -9.99
2019/11/12 23:12 EST    1.59   1.25   20  330   31  26.8  51.1 1022.2 -9.9 -9.999 -99.9 -99.99 -9.99
2019/11/12 23:18 EST    1.49   1.15   18  324   29  27.1  51.1 1022.2 -9.9 -9.999 -99.9 -99.99 -9.99
2019/11/12 23:24 EST    1.39   1.06   20  334   32  27.3  51.1 1022.3 -9.9 -9.999 -99.9 -99.99 -9.99
2019/11/12 23:30 EST    1.29   1.01   22  330   27  26.6  50.9 1022.3 -9.9 -9.999 -99.9 -99.99 -9.99
2019/11/12 23:36 EST    1.19   0.94   21  316   26  26.4  50.9 1022.3 -9.9 -9.999 -99.9 -99.99 -9.99
2019/11/12 23:42 EST    1.10   0.85   21  316   24  27.1  50.7 1022.3 -9.9 -9.999 -99.9 -99.99 -9.99
2019/11/12 23:48 EST    1.01   0.80   22  318   30  27.1  50.7 1022.4 -9.9 -9.999 -99.9 -99.99 -9.99
2019/11/12 23:54 EST    0.92   0.76   22  331   29  27.0  50.7 1022.5 -9.9 -9.999 -99.9 -99.99 -9.99
2019/11/13 00:00 EST    0.84   0.68   24  325   31  26.2  50.5 1022.5 -9.9 -9.999 -99.9 -99.99 -9.99
2019/11/13 00:06 EST    0.76   0.65   20  321   29  26.4  50.4 1022.5 -9.9 -9.999 -99.9 -99.99 -9.99
2019/11/13 00:12 EST    0.68   0.62   20  315   26  26.6  50.4 1022.6 -9.9 -9.999 -99.9 -99.99 -9.99
2019/11/13 00:18 EST    0.61   0.60   21  327   29  26.8  50.4 1022.6 -9.9 -9.999 -99.9 -99.99 -9.99
2019/11/13 00:24 EST    0.53   0.52   22  317   27  25.9  50.4 1022.5 -9.9 -9.999 -99.9 -99.99 -9.99
2019/11/13 00:30 EST    0.47   0.47   19  320   27  26.2  50.4 1022.6 -9.9 -9.999 -99.9 -99.99 -9.99
2019/11/13 00:36 EST    0.40   0.44   20  323   24  26.6  50.4 1022.6 -9.9 -9.999 -99.9 -99.99 -9.99
2019/11/13 00:42 EST    0.34   0.40   18  315   25  25.9  50.4 1022.6 -9.9 -9.999 -99.9 -99.99 -9.99
2019/11/13 00:48 EST    0.29   0.31   21  322   27  26.6  50.2 1022.6 -9.9 -9.999 -99.9 -99.99 -9.99
2019/11/13 00:54 EST    0.24   0.27   19  321   27  25.9  50.2 1022.7 -9.9 -9.999 -99.9 -99.99 -9.99
2019/11/13 01:00 EST    0.19   0.23   18  328   28  26.2  50.2 1022.7 -9.9 -9.999 -99.9 -99.99 -9.99
2019/11/13 01:06 EST    0.15   0.18   19  323   26  26.1  50.2 1022.8 -9.9 -9.999 -99.9 -99.99 -9.99
2019/11/13 01:12 EST    0.11   0.13   17  321   24  26.2  50.2 1022.7 -9.9 -9.999 -99.9 -99.99 -9.99
2019/11/13 01:18 EST    0.08   0.07   24  316   27  25.7  50.0 1022.9 -9.9 -9.999 -99.9 -99.99 -9.99
2019/11/13 01:24 EST    0.06   0.07   19  320   25  25.7  50.0 1022.9 -9.9 -9.999 -99.9 -99.99 -9.99
2019/11/13 01:30 EST    0.04   0.05   23  314   27  26.2  50.0 1023.0 -9.9 -9.999 -99.9 -99.99 -9.99
2019/11/13 01:36 EST    0.03   0.03   23  318   29  26.1  50.0 1023.1 -9.9 -9.999 -99.9 -99.99 -9.99
2019/11/13 01:42 EST    0.02   0.05   23  306   26  25.7  50.0 1023.1 -9.9 -9.999 -99.9 -99.99 -9.99
2019/11/13 01:48 EST    0.02   0.02   19  319   25  26.2  49.8 1023.1 -9.9 -9.999 -99.9 -99.99 -9.99
2019/11/13 01:54 EST    0.03   0.07   20  321   27  25.9  49.8 1023.3 -9.9 -9.999 -99.9 -99.99 -9.99
2019/11/13 02:00 EST    0.05   0.08   19  317   28  25.9  49.8 1023.2 -9.9 -9.999 -99.9 -99.99 -9.99
2019/11/13 02:06 EST    0.07   0.09   20  313   27  25.9  49.8 1023.2 -9.9 -9.999 -99.9 -99.99 -9.99
2019/11/13 02:12 EST    0.10   0.16   22  316   27  25.5  49.6 1023.3 -9.9 -9.999 -99.9 -99.99 -9.99
2019/11/13 02:18 EST    0.14   0.20   20  322   26  25.7  49.6 1023.4 -9.9 -9.999 -99.9 -99.99 -9.99
2019/11/13 02:24 EST    0.19   0.24   19  315   26  25.7  49.6 1023.5 -9.9 -9.999 -99.9 -99.99 -9.99
2019/11/13 02:30 EST    0.25   0.27   21  314   27  26.1  49.6 1023.6 -9.9 -9.999 -99.9 -99.99 -9.99
2019/11/13 02:36 EST    0.31   0.26   21  307   26  25.3  49.5 1023.6 -9.9 -9.999 -99.9 -99.99 -9.99
2019/11/13 02:42 EST    0.38   0.31   23  303   27  26.1  49.5 1023.6 -9.9 -9.999 -99.9 -99.99 -9.99
2019/11/13 02:48 EST    0.46   0.35   22  306   26  25.9  49.5 1023.7 -9.9 -9.999 -99.9 -99.99 -9.99
2019/11/13 02:54 EST    0.55   0.40   19  315   23  25.7  49.5 1023.7 -9.9 -9.999 -99.9 -99.99 -9.99
2019/11/13 03:00 EST    0.64   0.45   18  318   28  25.7  49.5 1023.7 -9.9 -9.999 -99.9 -99.99 -9.99
2019/11/13 03:06 EST    0.74   0.52   22  319   27  25.7  49.5 1023.7 -9.9 -9.999 -99.9 -99.99 -9.99
2019/11/13 03:12 EST    0.85   0.62   21  311   29  25.3  49.3 1023.7 -9.9 -9.999 -99.9 -99.99 -9.99
2019/11/13 03:18 EST    0.97   0.72   22  315   27  26.1  49.3 1023.9 -9.9 -9.999 -99.9 -99.99 -9.99
2019/11/13 03:24 EST    1.09   0.82   18  319   27  26.1  49.3 1023.9 -9.9 -9.999 -99.9 -99.99 -9.99
2019/11/13 03:30 EST    1.21   0.94   18  316   23  25.7  49.3 1024.0 -9.9 -9.999 -99.9 -99.99 -9.99
2019/11/13 03:36 EST    1.35   1.06   19  316   26  26.1  49.1 1024.0 -9.9 -9.999 -99.9 -99.99 -9.99
2019/11/13 03:42 EST    1.48   1.14   21  319   28  25.5  49.1 1024.1 -9.9 -9.999 -99.9 -99.99 -9.99
2019/11/13 03:48 EST    1.62   1.29   22  314   26  25.5  49.1 1024.2 -9.9 -9.999 -99.9 -99.99 -9.99
2019/11/13 03:54 EST    1.77   1.42   21  306   27  26.1  49.1 1024.1 -9.9 -9.999 -99.9 -99.99 -9.99
2019/11/13 04:00 EST    1.91   1.50   18  319   25  25.7  49.1 1024.2 -9.9 -9.999 -99.9 -99.99 -9.99
2019/11/13 04:06 EST    2.06   1.62   21  312   30  25.7  49.1 1024.4 -9.9 -9.999 -99.9 -99.99 -9.99
2019/11/13 04:12 EST    2.21   1.77   21  304   24  25.7  49.1 1024.4 -9.9 -9.999 -99.9 -99.99 -9.99
2019/11/13 04:18 EST    2.36   1.89   18  312   30  25.9  49.1 1024.5 -9.9 -9.999 -99.9 -99.99 -9.99
2019/11/13 04:24 EST    2.51   2.01   19  310   25  25.7  48.9 1024.5 -9.9 -9.999 -99.9 -99.99 -9.99
2019/11/13 04:30 EST    2.66   2.18   24  309   29  25.5  48.9 1024.6 -9.9 -9.999 -99.9 -99.99 -9.99
2019/11/13 04:36 EST    2.81   2.31   23  318   29  25.9  48.9 1024.7 -9.9 -9.999 -99.9 -99.99 -9.99
2019/11/13 04:42 EST    2.96   2.44   23  318   29  25.2  48.9 1024.7 -9.9 -9.999 -99.9 -99.99 -9.99
2019/11/13 04:48 EST    3.10   2.63   24  310   26  24.6  48.9 1024.8 -9.9 -9.999 -99.9 -99.99 -9.99
2019/11/13 04:54 EST    3.25   2.75   23  308   27  25.0  48.9 1024.9 -9.9 -9.999 -99.9 -99.99 -9.99
2019/11/13 05:00 EST    3.39   2.84   19  312   25  25.2  48.9 1024.9 -9.9 -9.999 -99.9 -99.99 -9.99
2019/11/13 05:06 EST    3.53   2.97   20  314   29  25.0  48.9 1025.0 -9.9 -9.999 -99.9 -99.99 -9.99
2019/11/13 05:12 EST    3.66   3.10   24  310   27  25.2  48.9 1025.1 -9.9 -9.999 -99.9 -99.99 -9.99
2019/11/13 05:18 EST    3.79   3.20   17  312   26  24.8  48.9 1025.1 -9.9 -9.999 -99.9 -99.99 -9.99
2019/11/13 05:24 EST    3.92   3.28   22  309   26  25.3  48.7 1025.2 -9.9 -9.999 -99.9 -99.99 -9.99
2019/11/13 05:30 EST    4.04   3.40   19  310   29  25.3  48.7 1025.3 -9.9 -9.999 -99.9 -99.99 -9.99
2019/11/13 05:36 EST    4.16   3.51   17  307   25  25.0  48.7 1025.3 -9.9 -9.999 -99.9 -99.99 -9.99
2019/11/13 05:42 EST    4.27   3.62   21  305   28  25.5  48.7 1025.4 -9.9 -9.999 -99.9 -99.99 -9.99
2019/11/13 05:48 EST    4.38   3.69   21  301   27  25.2  48.7 1025.4 -9.9 -9.999 -99.9 -99.99 -9.99
2019/11/13 05:54 EST    4.48   3.79   20  304   26  25.3  48.7 1025.5 -9.9 -9.999 -99.9 -99.99 -9.99
2019/11/13 06:00 EST    4.58   3.88   22  307   26  25.5  48.7 1025.6 -9.9 -9.999 -99.9 -99.99 -9.99
2019/11/13 06:06 EST    4.68   3.99   21  309   28  25.2  48.7 1025.6 -9.9 -9.999 -99.9 -99.99 -9.99
2019/11/13 06:12 EST    4.76   4.06   20  306   25  24.6  48.6 1025.6 -9.9 -9.999 -99.9 -99.99 -9.99
2019/11/13 06:18 EST    4.85   4.15   20  304   26  25.3  48.6 1025.6 -9.9 -9.999 -99.9 -99.99 -9.99
2019/11/13 06:24 EST    4.92   4.22   20  311   27  25.3  48.6 1025.7 -9.9 -9.999 -99.9 -99.99 -9.99
2019/11/13 06:30 EST    4.99   4.28   19  313   27  25.5  48.6 1025.7 -9.9 -9.999 -99.9 -99.99 -9.99
2019/11/13 06:36 EST    5.06   4.35   20  308   26  25.0  48.6 1025.8 -9.9 -9.999 -99.9 -99.99 -9.99
2019/11/13 06:42 EST    5.12   4.45   19  312   25  25.7  48.6 1025.9 -9.9 -9.999 -99.9 -99.99 -9.99
2019/11/13 06:48 EST    5.18   4.48   21  309   25  25.2  48.4 1026.0 -9.9 -9.999 -99.9 -99.99 -9.99
2019/11/13 06:54 EST    5.23   4.58   23  307   29  25.2  48.6 1026.1 -9.9 -9.999 -99.9 -99.99 -9.99
2019/11/13 07:00 EST    5.28   4.66   20  308   27  25.0  48.4 1026.2 -9.9 -9.999 -99.9 -99.99 -9.99
2019/11/13 07:06 EST    5.32   4.72   21  309   26  25.2  48.4 1026.3 -9.9 -9.999 -99.9 -99.99 -9.99
2019/11/13 07:12 EST    5.35   4.77   22  301   29  25.2  48.4 1026.4 -9.9 -9.999 -99.9 -99.99 -9.99
2019/11/13 07:18 EST    5.38   4.84   20  302   26  25.5  48.4 1026.5 -9.9 -9.999 -99.9 -99.99 -9.99
2019/11/13 07:24 EST    5.40   4.88   21  304   28  25.5  48.4 1026.6 -9.9 -9.999 -99.9 -99.99 -9.99
2019/11/13 07:30 EST    5.42   4.91   23  300   29  25.5  48.4 1026.7 -9.9 -9.999 -99.9 -99.99 -9.99
2019/11/13 07:36 EST    5.43   4.89   20  303   27  26.4  48.4 1026.8 -9.9 -9.999 -99.9 -99.99 -9.99
2019/11/13 07:42 EST    5.44   4.95   21  310   26  26.4  48.4 1026.8 -9.9 -9.999 -99.9 -99.99 -9.99
2019/11/13 07:48 EST    5.44   4.95   21  305   25  25.3  48.4 1027.0 -9.9 -9.999 -99.9 -99.99 -9.99
2019/11/13 07:54 EST    5.43   4.93   20  311   27  25.5  48.4 1027.0 -9.9 -9.999 -99.9 -99.99 -9.99
2019/11/13 08:00 EST    5.42   4.97   18  307   23  25.2  48.2 1027.2 -9.9 -9.999 -99.9 -99.99 -9.99
2019/11/13 08:06 EST    5.40   5.00   20  306   26  26.1  48.4 1027.2 -9.9 -9.999 -99.9 -99.99 -9.99
2019/11/13 08:12 EST    5.38   4.96   20  306   27  26.6  48.2 1027.3 -9.9 -9.999 -99.9 -99.99 -9.99
2019/11/13 08:18 EST    5.35   4.95   19  313   26  26.6  48.2 1027.3 -9.9 -9.999 -99.9 -99.99 -9.99
2019/11/13 08:24 EST    5.31   4.99   20  322   28  26.6  48.2 1027.2 -9.9 -9.999 -99.9 -99.99 -9.99
2019/11/13 08:30 EST    5.27   4.92   20  306   25  25.7  48.2 1027.3 -9.9 -9.999 -99.9 -99.99 -9.99
2019/11/13 08:36 EST    5.22   4.87   20  313   24  25.9  48.2 1027.4 -9.9 -9.999 -99.9 -99.99 -9.99
2019/11/13 08:42 EST    5.16   4.83   18  319   23  25.7  48.2 1027.3 -9.9 -9.999 -99.9 -99.99 -9.99
2019/11/13 08:48 EST    5.10   4.79   17  324   27  26.2  48.0 1027.3 -9.9 -9.999 -99.9 -99.99 -9.99
2019/11/13 08:54 EST    5.03   4.66   17  318   23  26.2  48.0 1027.4 -9.9 -9.999 -99.9 -99.99 -9.99
2019/11/13 09:00 EST    4.96   4.63   19  318   24  26.2  48.0 1027.5 -9.9 -9.999 -99.9 -99.99 -9.99
2019/11/13 09:06 EST    4.88   4.60   20  318   23  26.6  48.0 1027.5 -9.9 -9.999 -99.9 -99.99 -9.99
2019/11/13 09:12 EST    4.80   4.49   18  316   25  26.6  48.0 1027.5 -9.9 -9.999 -99.9 -99.99 -9.99
2019/11/13 09:18 EST    4.71   4.39   18  321   23  26.6  48.0 1027.6 -9.9 -9.999 -99.9 -99.99 -9.99
2019/11/13 09:24 EST    4.61   4.36   15  322   21  27.5  48.0 1027.7 -9.9 -9.999 -99.9 -99.99 -9.99
2019/11/13 09:30 EST    4.51   4.28   22  324   26  27.5  48.0 1027.7 -9.9 -9.999 -99.9 -99.99 -9.99
2019/11/13 09:36 EST    4.41   4.14   21  325   26  26.8  48.0 1027.7 -9.9 -9.999 -99.9 -99.99 -9.99
2019/11/13 09:42 EST    4.30   4.04   18  330   25  27.3  48.0 1027.7 -9.9 -9.999 -99.9 -99.99 -9.99
2019/11/13 09:48 EST    4.19   3.97   21  317   27  28.2  48.0 1027.6 -9.9 -9.999 -99.9 -99.99 -9.99
2019/11/13 09:54 EST    4.08   3.82   20  315   26  28.2  48.0 1027.6 -9.9 -9.999 -99.9 -99.99 -9.99
2019/11/13 10:00 EST    3.96   3.66   22  315   28  28.6  48.0 1027.7 -9.9 -9.999 -99.9 -99.99 -9.99
2019/11/13 10:06 EST    3.84   3.58   19  329   28  27.9  48.0 1027.7 -9.9 -9.999 -99.9 -99.99 -9.99
2019/11/13 10:12 EST    3.72   3.46   19  319   24  28.0  48.0 1027.7 -9.9 -9.999 -99.9 -99.99 -9.99
2019/11/13 10:18 EST    3.60   3.28   22  318   27  28.8  48.0 1027.7 -9.9 -9.999 -99.9 -99.99 -9.99
2019/11/13 10:24 EST    3.48   3.16   21  329   26  28.4  48.0 1027.7 -9.9 -9.999 -99.9 -99.99 -9.99
2019/11/13 10:30 EST    3.35   3.04   16  327   26  28.8  48.0 1027.6 -9.9 -9.999 -99.9 -99.99 -9.99
2019/11/13 10:36 EST    3.23   2.88   19  318   25  29.7  48.0 1027.6 -9.9 -9.999 -99.9 -99.99 -9.99
2019/11/13 10:42 EST    3.10   2.76   16  329   22  28.8  48.0 1027.6 -9.9 -9.999 -99.9 -99.99 -9.99
2019/11/13 10:48 EST    2.98   2.63   19  324   23  29.8  48.0 1027.6 -9.9 -9.999 -99.9 -99.99 -9.99
2019/11/13 10:54 EST    2.86   2.50   17  322   24  29.1  48.0 1027.6 -9.9 -9.999 -99.9 -99.99 -9.99
2019/11/13 11:00 EST    2.73   2.35   20  319   25  29.8  48.0 1027.5 -9.9 -9.999 -99.9 -99.99 -9.99
2019/11/13 11:06 EST    2.61   2.23   18  316   24  29.5  48.0 1027.4 -9.9 -9.999 -99.9 -99.99 -9.99
2019/11/13 11:12 EST    2.49   2.14   18  325   23  29.5  48.0 1027.5 -9.9 -9.999 -99.9 -99.99 -9.99
2019/11/13 11:18 EST    2.37   2.01   18  323   23  29.5  48.0 1027.5 -9.9 -9.999 -99.9 -99.99 -9.99
2019/11/13 11:24 EST    2.25   1.88   18  326   22  29.8  48.0 1027.5 -9.9 -9.999 -99.9 -99.99 -9.99
2019/11/13 11:30 EST    2.14   1.78   14  325   25  29.8  49.1 1027.6 -9.9 -9.999 -99.9 -99.99 -9.99
2019/11/13 11:36 EST    2.02   1.69   17  329   23  30.4  49.6 1027.6 -9.9 -9.999 -99.9 -99.99 -9.99
2019/11/13 11:42 EST    1.91   1.59   16  331   20  30.2  50.4 1027.6 -9.9 -9.999 -99.9 -99.99 -9.99
2019/11/13 11:48 EST    1.80   1.49   13  332   20  30.6  50.2 1027.7 -9.9 -9.999 -99.9 -99.99 -9.99
2019/11/13 11:54 EST    1.69   1.45   19  313   26  30.7  50.4 1027.8 -9.9 -9.999 -99.9 -99.99 -9.99
2019/11/13 12:00 EST    1.59   1.35   16  325   22  30.2  50.5 1027.7 -9.9 -9.999 -99.9 -99.99 -9.99
2019/11/13 12:06 EST    1.48   1.21   17  331   22  30.2  50.5 1027.7 -9.9 -9.999 -99.9 -99.99 -9.99
2019/11/13 12:12 EST    1.38   1.14   16  317   22  30.6  50.5 1027.6 -9.9 -9.999 -99.9 -99.99 -9.99
2019/11/13 12:18 EST    1.28   1.05   11  344   19  30.9  50.5 1027.7 -9.9 -9.999 -99.9 -99.99 -9.99
2019/11/13 12:24 EST    1.19   0.97   16  322   20  31.3  50.5 1027.8 -9.9 -9.999 -99.9 -99.99 -9.99
2019/11/13 12:30 EST    1.09   0.85   16  315   21  31.1  50.5 1027.7 -9.9 -9.999 -99.9 -99.99 -9.99
2019/11/13 12:36 EST    1.00   0.77   17  331   24  30.6  50.2 1027.5 -9.9 -9.999 -99.9 -99.99 -9.99
2019/11/13 12:42 EST    0.91   0.72   11  333   18  31.6  50.2 1027.5 -9.9 -9.999 -99.9 -99.99 -9.99
2019/11/13 12:48 EST    0.83   0.63   11  311   17  31.5  49.6 1027.6 -9.9 -9.999 -99.9 -99.99 -9.99
2019/11/13 12:54 EST    0.74   0.55   14  329   18  30.9  50.0 1027.7 -9.9 -9.999 -99.9 -99.99 -9.99
2019/11/13 13:00 EST    0.66   0.47   14  329   21  31.1  50.0 1027.5 -9.9 -9.999 -99.9 -99.99 -9.99
2019/11/13 13:06 EST    0.58   0.35   11  323   17  31.1  49.8 1027.6 -9.9 -9.999 -99.9 -99.99 -9.99
2019/11/13 13:12 EST    0.51   0.36   12  326   19  31.1  50.2 1027.6 -9.9 -9.999 -99.9 -99.99 -9.99
2019/11/13 13:18 EST    0.44   0.27   12  329   17  31.8  50.2 1027.6 -9.9 -9.999 -99.9 -99.99 -9.99
2019/11/13 13:24 EST    0.37   0.21   17  302   20  32.2  49.8 1027.7 -9.9 -9.999 -99.9 -99.99 -9.99
2019/11/13 13:30 EST    0.31   0.14   17  322   22  31.6  49.6 1027.8 -9.9 -9.999 -99.9 -99.99 -9.99
2019/11/13 13:36 EST    0.25   0.08   12  332   16  31.6  49.6 1027.8 -9.9 -9.999 -99.9 -99.99 -9.99
2019/11/13 13:42 EST    0.20   0.04   13  321   19  32.2  49.6 1027.7 -9.9 -9.999 -99.9 -99.99 -9.99
2019/11/13 13:48 EST    0.15  -0.01   15  323   18  31.8  49.6 1027.6 -9.9 -9.999 -99.9 -99.99 -9.99
2019/11/13 13:54 EST    0.11  -0.04   12  332   19  32.5  49.6 1027.8 -9.9 -9.999 -99.9 -99.99 -9.99
2019/11/13 14:00 EST    0.08  -0.04   15  320   20  32.2  49.5 1027.7 -9.9 -9.999 -99.9 -99.99 -9.99
2019/11/13 14:06 EST    0.05  -0.10   12  312   18  32.2  49.5 1027.7 -9.9 -9.999 -99.9 -99.99 -9.99
2019/11/13 14:12 EST    0.02  -0.05   15  312   18  32.2  49.5 1027.8 -9.9 -9.999 -99.9 -99.99 -9.99
2019/11/13 14:18 EST    0.01  -0.07   14  318   17  32.7  49.5 1027.9 -9.9 -9.999 -99.9 -99.99 -9.99
2019/11/13 14:24 EST   -0.01  -0.04    9  325   17  32.7  49.5 1028.0 -9.9 -9.999 -99.9 -99.99 -9.99
2019/11/13 14:30 EST   -0.01  -0.05   12  308   16  33.3  49.3 1028.0 -9.9 -9.999 -99.9 -99.99 -9.99
2019/11/13 14:36 EST   -0.00  -0.01   14  331   18  32.9  49.3 1027.9 -9.9 -9.999 -99.9 -99.99 -9.99
2019/11/13 14:42 EST    0.01   0.03    9  306   16  32.7  49.3 1028.1 -9.9 -9.999 -99.9 -99.99 -9.99
2019/11/13 14:48 EST    0.03   0.05    7  331   17  33.4  49.3 1028.0 -9.9 -9.999 -99.9 -99.99 -9.99
2019/11/13 14:54 EST    0.06   0.09   11  321   16  33.8  49.3 1028.0 -9.9 -9.999 -99.9 -99.99 -9.99
2019/11/13 15:00 EST    0.09   0.14   13  333   19  33.1  49.1 1028.0 -9.9 -9.999 -99.9 -99.99 -9.99
2019/11/13 15:06 EST    0.14   0.18   10  331   16  33.3  49.1 1027.9 -9.9 -9.999 -99.9 -99.99 -9.99
2019/11/13 15:12 EST    0.19   0.22   12  312   16  33.1  49.1 1028.1 -9.9 -9.999 -99.9 -99.99 -9.99
2019/11/13 15:18 EST    0.25   0.28   12  315   14  33.3  49.1 1028.2 -9.9 -9.999 -99.9 -99.99 -9.99
2019/11/13 15:24 EST    0.32   0.39   12  304   15  33.1  49.1 1028.3 -9.9 -9.999 -99.9 -99.99 -9.99
2019/11/13 15:30 EST    0.39   0.48   10  305   17  32.9  48.7 1028.4 -9.9 -9.999 -99.9 -99.99 -9.99
2019/11/13 15:36 EST    0.47   0.54   14  318   17  33.4  49.1 1028.3 -9.9 -9.999 -99.9 -99.99 -9.99
2019/11/13 15:42 EST    0.56   0.63    8  309   15  32.9  49.1 1028.3 -9.9 -9.999 -99.9 -99.99 -9.99
2019/11/13 15:48 EST    0.66   0.77   12  334   18  32.9  49.1 1028.3 -9.9 -9.999 -99.9 -99.99 -9.99
2019/11/13 15:54 EST    0.76   0.88    9  332   13  32.7  48.9 1028.5 -9.9 -9.999 -99.9 -99.99 -9.99
2019/11/13 16:00 EST    0.86   0.96    5  349   12  32.9  48.9 1028.5 -9.9 -9.999 -99.9 -99.99 -9.99
2019/11/13 16:06 EST    0.98   1.10   13  320   16  32.9  48.7 1028.6 -9.9 -9.999 -99.9 -99.99 -9.99
2019/11/13 16:12 EST    1.09   1.19    8  343   15  33.3  48.7 1028.8 -9.9 -9.999 -99.9 -99.99 -9.99
2019/11/13 16:18 EST    1.21   1.33   11  309   14  32.9  48.4 1028.8 -9.9 -9.999 -99.9 -99.99 -9.99
2019/11/13 16:24 EST    1.33   1.44   10  325   14  33.1  48.4 1028.7 -9.9 -9.999 -99.9 -99.99 -9.99
2019/11/13 16:30 EST    1.46   1.56    8  340   14  32.9  48.4 1028.8 -9.9 -9.999 -99.9 -99.99 -9.99
2019/11/13 16:36 EST    1.59   1.69    8  340   14  32.4  48.2 1028.7 -9.9 -9.999 -99.9 -99.99 -9.99
2019/11/13 16:42 EST    1.72   1.87    8  341   11  32.7  48.2 1028.8 -9.9 -9.999 -99.9 -99.99 -9.99
2019/11/13 16:48 EST    1.85   1.97    6  322   12  32.2  48.2 1028.8 -9.9 -9.999 -99.9 -99.99 -9.99
2019/11/13 16:54 EST    1.98   2.11   10  324   14  32.7  48.0 1028.9 -9.9 -9.999 -99.9 -99.99 -9.99
2019/11/13 17:00 EST    2.11   2.26    9  332   14  32.7  48.2 1028.9 -9.9 -9.999 -99.9 -99.99 -9.99
2019/11/13 17:06 EST    2.24   2.36   11  310   14  32.4  48.2 1029.0 -9.9 -9.999 -99.9 -99.99 -9.99
2019/11/13 17:12 EST    2.37   2.49   10  321   15  32.9  48.2 1029.2 -9.9 -9.999 -99.9 -99.99 -9.99
2019/11/13 17:18 EST    2.50   2.62   10  330   14  33.1  48.2 1029.4 -9.9 -9.999 -99.9 -99.99 -9.99
2019/11/13 17:24 EST    2.63   2.76   12  319   15  32.4  48.0 1029.4 -9.9 -9.999 -99.9 -99.99 -9.99
2019/11/13 17:30 EST    2.75   2.88    7  338   12  32.9  48.0 1029.5 -9.9 -9.999 -99.9 -99.99 -9.99
2019/11/13 17:36 EST    2.87   2.98    9  344   13  32.5  47.8 1029.4 -9.9 -9.999 -99.9 -99.99 -9.99
2019/11/13 17:42 EST    2.99   3.14    6  331   11  32.2  47.8 1029.4 -9.9 -9.999 -99.9 -99.99 -9.99
2019/11/13 17:48 EST    3.10   3.25    7  321   11  32.4  47.8 1029.5 -9.9 -9.999 -99.9 -99.99 -9.99
2019/11/13 17:54 EST    3.21   3.37    7  335   11  32.7  47.8 1029.7 -9.9 -9.999 -99.9 -99.99 -9.99
2019/11/13 18:00 EST    3.32   3.46    7  335   11  32.2  47.8 1029.8 -9.9 -9.999 -99.9 -99.99 -9.99
2019/11/13 18:06 EST    3.43   3.61    7  329    9  32.2  47.8 1029.7 -9.9 -9.999 -99.9 -99.99 -9.99
2019/11/13 18:12 EST    3.53   3.72    6  347   11  32.4  47.8 1029.8 -9.9 -9.999 -99.9 -99.99 -9.99
2019/11/13 18:18 EST    3.62   3.82    5  341    7  32.4  47.8 1030.0 -9.9 -9.999 -99.9 -99.99 -9.99
2019/11/13 18:24 EST    3.71   3.92    7  325    9  32.2  47.7 1030.0 -9.9 -9.999 -99.9 -99.99 -9.99
2019/11/13 18:30 EST    3.80   4.00   10  327   13  32.5  47.7 1030.0 -9.9 -9.999 -99.9 -99.99 -9.99
2019/11/13 18:36 EST    3.88   4.11   11  317   13  32.5  47.7 1030.2 -9.9 -9.999 -99.9 -99.99 -9.99
2019/11/13 18:42 EST    3.96   4.20   11  323   13  32.9  47.7 1030.4 -9.9 -9.999 -99.9 -99.99 -9.99
2019/11/13 18:48 EST    4.03   4.28    9  323   13  32.7  47.7 1030.5 -9.9 -9.999 -99.9 -99.99 -9.99
2019/11/13 18:54 EST    4.10   4.39    8  320   11  32.7  47.7 1030.6 -9.9 -9.999 -99.9 -99.99 -9.99
2019/11/13 19:00 EST    4.17   4.47    9  331   13  32.7  48.7 1030.7 -9.9 -9.999 -99.9 -99.99 -9.99
2019/11/13 19:06 EST    4.23   4.56    6  348   10  32.2  49.1 1030.6 -9.9 -9.999 -99.9 -99.99 -9.99
2019/11/13 19:12 EST    4.28   4.64    7  338    9  32.0  49.1 1030.6 -9.9 -9.999 -99.9 -99.99 -9.99
2019/11/13 19:18 EST    4.33   4.68    6  334    8  31.8  50.0 1030.6 -9.9 -9.999 -99.9 -99.99 -9.99
2019/11/13 19:24 EST    4.38   4.76    7  332   11  31.8  50.0 1030.5 -9.9 -9.999 -99.9 -99.99 -9.99
2019/11/13 19:30 EST    4.42   4.77    7  328   13  32.0  50.0 1030.6 -9.9 -9.999 -99.9 -99.99 -9.99
2019/11/13 19:36 EST    4.46   4.81    6  359    8  32.2  50.0 1030.5 -9.9 -9.999 -99.9 -99.99 -9.99
2019/11/13 19:42 EST    4.49   4.85    7  342   10  31.8  50.2 1030.6 -9.9 -9.999 -99.9 -99.99 -9.99
2019/11/13 19:48 EST    4.51   4.88    7  323   11  31.8  50.2 1030.6 -9.9 -9.999 -99.9 -99.99 -9.99
2019/11/13 19:54 EST    4.53   4.88    5  345    9  32.2  50.2 1030.5 -9.9 -9.999 -99.9 -99.99 -9.99
2019/11/13 20:00 EST    4.55   4.94    7  326    9  32.0  50.2 1030.6 -9.9 -9.999 -99.9 -99.99 -9.99
2019/11/13 20:06 EST    4.56   4.96    4  355    8  32.4  50.2 1030.7 -9.9 -9.999 -99.9 -99.99 -9.99
2019/11/13 20:12 EST    4.56   4.94    5    4    8  31.6  50.2 1030.8 -9.9 -9.999 -99.9 -99.99 -9.99
2019/11/13 20:18 EST    4.56   4.95    6  336    8  31.6  50.2 1030.7 -9.9 -9.999 -99.9 -99.99 -9.99
2019/11/13 20:24 EST    4.55   4.95    6  336    9  31.5  50.2 1030.7 -9.9 -9.999 -99.9 -99.99 -9.99
2019/11/13 20:30 EST    4.54   4.90    4  346    8  31.6  50.0 1030.7 -9.9 -9.999 -99.9 -99.99 -9.99
2019/11/13 20:36 EST    4.52   4.88    4  338    8  31.3  50.0 1030.8 -9.9 -9.999 -99.9 -99.99 -9.99
2019/11/13 20:42 EST    4.50   4.85    4  352    6  31.6  50.0 1030.8 -9.9 -9.999 -99.9 -99.99 -9.99
2019/11/13 20:48 EST    4.47   4.81    4  355    7  31.5  50.0 1030.8 -9.9 -9.999 -99.9 -99.99 -9.99
2019/11/13 20:54 EST    4.43   4.77    2  354    6  31.6  50.0 1030.8 -9.9 -9.999 -99.9 -99.99 -9.99
2019/11/13 21:00 EST    4.39   4.71    4  333    5  31.6  50.0 1030.9 -9.9 -9.999 -99.9 -99.99 -9.99
2019/11/13 21:06 EST    4.34   4.67    3   27    4  31.6  50.0 1030.9 -9.9 -9.999 -99.9 -99.99 -9.99
2019/11/13 21:12 EST    4.28   4.61    3    7    5  31.5  50.0 1031.0 -9.9 -9.999 -99.9 -99.99 -9.99
2019/11/13 21:18 EST    4.22   4.55    3   20    5  31.5  50.0 1030.8 -9.9 -9.999 -99.9 -99.99 -9.99
2019/11/13 21:24 EST    4.16   4.49    3   47    5  31.5  50.0 1030.6 -9.9 -9.999 -99.9 -99.99 -9.99
2019/11/13 21:30 EST    4.08   4.39    2   58    4  31.5  50.0 1030.5 -9.9 -9.999 -99.9 -99.99 -9.99
2019/11/13 21:36 EST    4.01   4.32    2   18    3  31.5  50.0 1030.5 -9.9 -9.999 -99.9 -99.99 -9.99
2019/11/13 21:42 EST    3.92   4.24    1    9    3  31.5  50.0 1030.6 -9.9 -9.999 -99.9 -99.99 -9.99
2019/11/13 21:48 EST    3.84   4.15    3  333    4  31.6  50.0 1030.8 -9.9 -9.999 -99.9 -99.99 -9.99
2019/11/13 21:54 EST    3.74   4.04    1  350    3  32.0  50.0 1030.8 -9.9 -9.999 -99.9 -99.99 -9.99
2019/11/13 22:00 EST    3.65   3.95    3  322    4  31.8  49.8 1031.0 -9.9 -9.999 -99.9 -99.99 -9.99
2019/11/13 22:06 EST    3.55   3.84    3  332    4  32.2  49.8 1031.1 -9.9 -9.999 -99.9 -99.99 -9.99
2019/11/13 22:12 EST    3.44   3.73    4  349    6  32.2  49.8 1031.3 -9.9 -9.999 -99.9 -99.99 -9.99
2019/11/13 22:18 EST    3.34   3.61    4  341    5  31.8  49.8 1031.5 -9.9 -9.999 -99.9 -99.99 -9.99
2019/11/13 22:24 EST    3.23   3.45    2    3    5  32.0  49.8 1031.5 -9.9 -9.999 -99.9 -99.99 -9.99
2019/11/13 22:30 EST    3.12   3.38    2   32    3  32.0  49.8 1031.4 -9.9 -9.999 -99.9 -99.99 -9.99
2019/11/13 22:36 EST    3.00   3.21    2    7    3  31.6  49.6 1031.1 -9.9 -9.999 -99.9 -99.99 -9.99
2019/11/13 22:42 EST    2.89   3.10    2  353    3  32.2  49.6 1031.4 -9.9 -9.999 -99.9 -99.99 -9.99
2019/11/13 22:48 EST    2.77   2.99    2   24    2  32.0  49.6 1031.5 -9.9 -9.999 -99.9 -99.99 -9.99
2019/11/13 22:54 EST    2.66   2.90    3  345    5  32.0  49.6 1031.4 -9.9 -9.999 -99.9 -99.99 -9.99
2019/11/13 23:00 EST    2.54   2.76    2   25    3  31.6  49.6 1031.5 -9.9 -9.999 -99.9 -99.99 -9.99
2019/11/13 23:06 EST    2.42   2.65    3   12    4  31.6  49.6 1031.3 -9.9 -9.999 -99.9 -99.99 -9.99
2019/11/13 23:12 EST    2.31   2.57    1  349    2  31.8  49.6 1031.3 -9.9 -9.999 -99.9 -99.99 -9.99
2019/11/13 23:18 EST    2.19   2.45    3  329    4  31.8  49.6 1031.4 -9.9 -9.999 -99.9 -99.99 -9.99
2019/11/13 23:24 EST    2.08   2.35    2   15    3  32.2  49.5 1031.3 -9.9 -9.999 -99.9 -99.99 -9.99
2019/11/13 23:30 EST    1.97   2.24    0   37    3  31.5  49.3 1031.5 -9.9 -9.999 -99.9 -99.99 -9.99
2019/11/13 23:36 EST    1.86   2.13    1   13    2  31.5  49.3 1031.5 -9.9 -9.999 -99.9 -99.99 -9.99
2019/11/13 23:42 EST    1.75   2.06    0   33    2  32.0  49.1 1031.4 -9.9 -9.999 -99.9 -99.99 -9.99
2019/11/13 23:48 EST    1.64   1.95    1    6    3  32.2  48.9 1031.3 -9.9 -9.999 -99.9 -99.99 -9.99
2019/11/13 23:54 EST    1.54   1.88    2   19    3  31.1  48.9 1031.5 -9.9 -9.999 -99.9 -99.99 -9.99
2019/11/14 00:00 EST    1.43   1.82    1   22    3  32.0  48.7 1031.4 -9.9 -9.999 -99.9 -99.99 -9.99
2019/11/14 00:06 EST    1.34   1.71    1   22    3  32.0  48.2 1031.4 -9.9 -9.999 -99.9 -99.99 -9.99
2019/11/14 00:12 EST    1.24   1.61    0   60    1  31.6  48.2 1031.2 -9.9 -9.999 -99.9 -99.99 -9.99
2019/11/14 00:18 EST    1.15   1.57    0   54    1  31.8  47.8 1031.1 -9.9 -9.999 -99.9 -99.99 -9.99
2019/11/14 00:24 EST    1.06   1.49    0   40    1  31.5  47.8 1031.2 -9.9 -9.999 -99.9 -99.99 -9.99
2019/11/14 00:30 EST    0.97   1.37    2  339    3  31.8  47.7 1031.3 -9.9 -9.999 -99.9 -99.99 -9.99
2019/11/14 00:36 EST    0.89   1.31    2    7    2  31.8  47.7 1031.3 -9.9 -9.999 -99.9 -99.99 -9.99
2019/11/14 00:42 EST    0.81   1.23    1   19    2  32.0  47.7 1031.3 -9.9 -9.999 -99.9 -99.99 -9.99
2019/11/14 00:48 EST    0.73   1.15    3  335    3  32.0  47.7 1031.5 -9.9 -9.999 -99.9 -99.99 -9.99
2019/11/14 00:54 EST    0.66   1.08    0  306    4  32.2  47.5 1031.5 -9.9 -9.999 -99.9 -99.99 -9.99
2019/11/14 01:00 EST    0.59   1.03    1  267    2  32.4  47.5 1031.3 -9.9 -9.999 -99.9 -99.99 -9.99
2019/11/14 01:06 EST    0.52   0.93    2  279    4  32.7  47.5 1031.2 -9.9 -9.999 -99.9 -99.99 -9.99
2019/11/14 01:12 EST    0.46   0.88    4  334    5  32.9  47.7 1031.4 -9.9 -9.999 -99.9 -99.99 -9.99
2019/11/14 01:18 EST    0.40   0.83    2  266    4  32.5  47.8 1031.3 -9.9 -9.999 -99.9 -99.99 -9.99
2019/11/14 01:24 EST    0.34   0.77    3   58    5  31.5  48.2 1031.2 -9.9 -9.999 -99.9 -99.99 -9.99
2019/11/14 01:30 EST    0.29   0.69    3   39    4  31.8  48.2 1031.3 -9.9 -9.999 -99.9 -99.99 -9.99
2019/11/14 01:36 EST    0.25   0.65    2  348    3  32.2  48.0 1031.2 -9.9 -9.999 -99.9 -99.99 -9.99
2019/11/14 01:42 EST    0.21   0.63    1  325    3  32.5  48.4 1031.2 -9.9 -9.999 -99.9 -99.99 -9.99
2019/11/14 01:48 EST    0.17   0.57    3    8    3  32.5  48.0 1031.3 -9.9 -9.999 -99.9 -99.99 -9.99
2019/11/14 01:54 EST    0.14   0.53    2  346    3  32.4  47.8 1031.1 -9.9 -9.999 -99.9 -99.99 -9.99
2019/11/14 02:00 EST    0.11   0.53    2  319    2  32.5  47.8 1031.1 -9.9 -9.999 -99.9 -99.99 -9.99
2019/11/14 02:06 EST    0.09   0.52    1  298    3  32.7  47.8 1031.3 -9.9 -9.999 -99.9 -99.99 -9.99
2019/11/14 02:12 EST    0.08   0.51    2  355    3  32.7  47.7 1031.1 -9.9 -9.999 -99.9 -99.99 -9.99
2019/11/14 02:18 EST    0.07   0.48    2  344    2  32.4  47.8 1031.1 -9.9 -9.999 -99.9 -99.99 -9.99
2019/11/14 02:24 EST    0.07   0.50    4   27    5  32.7  48.0 1031.0 -9.9 -9.999 -99.9 -99.99 -9.99
2019/11/14 02:30 EST    0.08   0.53    2   23    5  32.0  48.0 1031.1 -9.9 -9.999 -99.9 -99.99 -9.99
2019/11/14 02:36 EST    0.09   0.51    3   48    4  31.6  47.8 1031.0 -9.9 -9.999 -99.9 -99.99 -9.99
2019/11/14 02:42 EST    0.11   0.52    3   34    4  31.6  47.8 1031.0 -9.9 -9.999 -99.9 -99.99 -9.99
2019/11/14 02:48 EST    0.14   0.56    4   69    5  31.6  48.0 1030.9 -9.9 -9.999 -99.9 -99.99 -9.99
2019/11/14 02:54 EST    0.17   0.61    3   55    6  31.5  47.7 1030.8 -9.9 -9.999 -99.9 -99.99 -9.99
2019/11/14 03:00 EST    0.21   0.62    4   29    5  31.5  47.7 1030.8 -9.9 -9.999 -99.9 -99.99 -9.99
2019/11/14 03:06 EST    0.27   0.69    3   21    7  31.6  47.7 1031.0 -9.9 -9.999 -99.9 -99.99 -9.99
2019/11/14 03:12 EST    0.32   0.74    4   42    5  32.0  48.0 1031.1 -9.9 -9.999 -99.9 -99.99 -9.99
2019/11/14 03:18 EST    0.39   0.82    4   51    5  32.0  48.0 1031.1 -9.9 -9.999 -99.9 -99.99 -9.99
2019/11/14 03:24 EST    0.47   0.90    3   27    6  31.6  48.0 1031.1 -9.9 -9.999 -99.9 -99.99 -9.99
2019/11/14 03:30 EST    0.55   1.00    3   28    6  31.8  48.2 1030.8 -9.9 -9.999 -99.9 -99.99 -9.99
2019/11/14 03:36 EST    0.64   1.13    2   70    4  31.8  48.4 1030.7 -9.9 -9.999 -99.9 -99.99 -9.99
2019/11/14 03:42 EST    0.74   1.23    4   49    4  31.6  48.6 1030.7 -9.9 -9.999 -99.9 -99.99 -9.99
2019/11/14 03:48 EST    0.84   1.38    3   44    4  31.6  48.6 1030.7 -9.9 -9.999 -99.9 -99.99 -9.99
2019/11/14 03:54 EST    0.95   1.51    3   32    5  31.8  48.0 1030.6 -9.9 -9.999 -99.9 -99.99 -9.99
2019/11/14 04:00 EST    1.07   1.65    4   32    5  31.8  48.0 1030.8 -9.9 -9.999 -99.9 -99.99 -9.99
2019/11/14 04:06 EST    1.19   1.79    2   28    5  31.6  47.7 1030.9 -9.9 -9.999 -99.9 -99.99 -9.99
2019/11/14 04:12 EST    1.32   1.94    2   44    4  31.6  47.7 1030.9 -9.9 -9.999 -99.9 -99.99 -9.99
2019/11/14 04:18 EST    1.46   2.08    4   45    5  31.5  47.7 1030.8 -9.9 -9.999 -99.9 -99.99 -9.99
2019/11/14 04:24 EST    1.60   2.23    5   43    7  31.6  47.7 1030.6 -9.9 -9.999 -99.9 -99.99 -9.99
2019/11/14 04:30 EST    1.74   2.40    4   25    5  31.6  47.8 1030.7 -9.9 -9.999 -99.9 -99.99 -9.99
2019/11/14 04:36 EST    1.89   2.52    4   31    6  31.6  47.8 1030.7 -9.9 -9.999 -99.9 -99.99 -9.99
2019/11/14 04:42 EST    2.04   2.68    3   26    5  31.8  47.8 1030.7 -9.9 -9.999 -99.9 -99.99 -9.99
2019/11/14 04:48 EST    2.19   2.84    4   40    5  31.8  47.8 1030.7 -9.9 -9.999 -99.9 -99.99 -9.99
2019/11/14 04:54 EST    2.34   2.97    4   25    6  31.6  48.0 1030.7 -9.9 -9.999 -99.9 -99.99 -9.99
2019/11/14 05:00 EST    2.49   3.14    3   12    5  32.0  48.0 1030.8 -9.9 -9.999 -99.9 -99.99 -9.99
2019/11/14 05:06 EST    2.65   3.29    4   22    5  31.6  47.8 1030.6 -9.9 -9.999 -99.9 -99.99 -9.99
2019/11/14 05:12 EST    2.80   3.41    4   24    6  31.6  47.7 1030.6 -9.9 -9.999 -99.9 -99.99 -9.99
2019/11/14 05:18 EST    2.95   3.55    3   22    5  31.6  47.7 1030.6 -9.9 -9.999 -99.9 -99.99 -9.99
2019/11/14 05:24 EST    3.10   3.71    2   42    3  31.6  47.7 1030.5 -9.9 -9.999 -99.9 -99.99 -9.99
2019/11/14 05:30 EST    3.25   3.86    2   27    4  31.6  47.3 1030.6 -9.9 -9.999 -99.9 -99.99 -9.99
2019/11/14 05:36 EST    3.40   3.98    1   42    5  31.8  48.0 1030.8 -9.9 -9.999 -99.9 -99.99 -9.99
2019/11/14 05:42 EST    3.54   4.10    2   48    2  31.6  47.8 1030.6 -9.9 -9.999 -99.9 -99.99 -9.99
2019/11/14 05:48 EST    3.68   4.24    2   13    4  31.6  47.8 1030.7 -9.9 -9.999 -99.9 -99.99 -9.99
2019/11/14 05:54 EST    3.82   4.39    3   13    4  31.8  47.8 1030.7 -9.9 -9.999 -99.9 -99.99 -9.99
2019/11/14 06:00 EST    3.95   4.47    3   19    4  32.0  48.0 1030.8 -9.9 -9.999 -99.9 -99.99 -9.99
2019/11/14 06:06 EST    4.07   4.61    3    5    4  31.8  48.2 1030.8 -9.9 -9.999 -99.9 -99.99 -9.99
2019/11/14 06:12 EST    4.19   4.69    3  349    3  32.4  48.4 1031.1 -9.9 -9.999 -99.9 -99.99 -9.99
2019/11/14 06:18 EST    4.31   4.80    2   13    3  32.5  48.6 1031.0 -9.9 -9.999 -99.9 -99.99 -9.99
2019/11/14 06:24 EST    4.42   4.87    3  354    3  32.2  48.6 1030.9 -9.9 -9.999 -99.9 -99.99 -9.99
2019/11/14 06:30 EST    4.52   4.98    3    9    4  32.5  48.6 1031.1 -9.9 -9.999 -99.9 -99.99 -9.99
2019/11/14 06:36 EST    4.62   5.03    1  344    2  32.7  48.6 1031.1 -9.9 -9.999 -99.9 -99.99 -9.99
2019/11/14 06:42 EST    4.71   5.12    1  344    2  32.7  48.6 1031.1 -9.9 -9.999 -99.9 -99.99 -9.99
2019/11/14 06:48 EST    4.80   5.18    0  342    2  32.7  48.4 1031.0 -9.9 -9.999 -99.9 -99.99 -9.99
2019/11/14 06:54 EST    4.88   5.26    0  338    1  33.1  48.4 1031.1 -9.9 -9.999 -99.9 -99.99 -9.99
2019/11/14 07:00 EST    4.96   5.33    1    4    2  33.1  48.6 1031.3 -9.9 -9.999 -99.9 -99.99 -9.99
2019/11/14 07:06 EST    5.03   5.38    0  349    2  32.9  48.6 1031.3 -9.9 -9.999 -99.9 -99.99 -9.99
2019/11/14 07:12 EST    5.09   5.45    0  107    1  32.7  48.9 1031.4 -9.9 -9.999 -99.9 -99.99 -9.99
2019/11/14 07:18 EST    5.15   5.52    2  254    4  33.4  49.3 1031.4 -9.9 -9.999 -99.9 -99.99 -9.99
2019/11/14 07:24 EST    5.21   5.58    4  255    5  35.1  49.5 1031.5 -9.9 -9.999 -99.9 -99.99 -9.99
2019/11/14 07:30 EST    5.25   5.61    4  240    7  35.2  49.5 1031.5 -9.9 -9.999 -99.9 -99.99 -9.99
2019/11/14 07:36 EST    5.30   5.66    4  250    7  34.9  49.5 1031.5 -9.9 -9.999 -99.9 -99.99 -9.99
2019/11/14 07:42 EST    5.33   5.71    5  236    7  35.1  49.5 1031.5 -9.9 -9.999 -99.9 -99.99 -9.99
2019/11/14 07:48 EST    5.36   5.73    6  232    8  35.4  49.5 1031.5 -9.9 -9.999 -99.9 -99.99 -9.99
2019/11/14 07:54 EST    5.39   5.72    5  258    8  35.2  49.6 1031.6 -9.9 -9.999 -99.9 -99.99 -9.99
2019/11/14 08:00 EST    5.41   5.78    6  252    9  35.2  49.5 1031.6 -9.9 -9.999 -99.9 -99.99 -9.99
2019/11/14 08:06 EST    5.42   5.80    7  233    8  35.2  49.6 1031.7 -9.9 -9.999 -99.9 -99.99 -9.99
2019/11/14 08:12 EST    5.43   5.81    5  251    8  35.2  49.6 1031.7 -9.9 -9.999 -99.9 -99.99 -9.99
2019/11/14 08:18 EST    5.44   5.84    6  234    8  35.6  49.6 1031.6 -9.9 -9.999 -99.9 -99.99 -9.99
2019/11/14 08:24 EST    5.43   5.85    7  243    8  35.6  49.5 1031.6 -9.9 -9.999 -99.9 -99.99 -9.99
2019/11/14 08:30 EST    5.43   5.86    6  242    8  35.4  49.6 1031.7 -9.9 -9.999 -99.9 -99.99 -9.99
2019/11/14 08:36 EST    5.41   5.87    6  254    8  36.0  49.5 1031.6 -9.9 -9.999 -99.9 -99.99 -9.99
2019/11/14 08:42 EST    5.40   5.86    6  239    9  35.6  49.5 1031.6 -9.9 -9.999 -99.9 -99.99 -9.99
2019/11/14 08:48 EST    5.37   5.82    6  249    8  35.6  49.5 1031.6 -9.9 -9.999 -99.9 -99.99 -9.99
2019/11/14 08:54 EST    5.34   5.80    5  265    7  35.6  49.5 1031.6 -9.9 -9.999 -99.9 -99.99 -9.99
2019/11/14 09:00 EST    5.31   5.75    6  249    8  36.0  49.3 1031.6 -9.9 -9.999 -99.9 -99.99 -9.99
2019/11/14 09:06 EST    5.27   5.70    6  254    9  35.6  49.1 1031.6 -9.9 -9.999 -99.9 -99.99 -9.99
2019/11/14 09:12 EST    5.22   5.65    4  264    7  35.6  48.7 1031.7 -9.9 -9.999 -99.9 -99.99 -9.99
2019/11/14 09:18 EST    5.17   5.60    5  274    7  36.1  48.6 1031.7 -9.9 -9.999 -99.9 -99.99 -9.99
2019/11/14 09:24 EST    5.11   5.55    4  266    6  36.1  48.2 1031.6 -9.9 -9.999 -99.9 -99.99 -9.99
2019/11/14 09:30 EST    5.05   5.48    4  257    6  36.7  48.2 1031.5 -9.9 -9.999 -99.9 -99.99 -9.99
2019/11/14 09:36 EST    4.98   5.42    3  267    6  36.1  48.0 1031.5 -9.9 -9.999 -99.9 -99.99 -9.99
2019/11/14 09:42 EST    4.90   5.34    3  271    6  36.5  48.0 1031.4 -9.9 -9.999 -99.9 -99.99 -9.99
2019/11/14 09:48 EST    4.82   5.26    3  274    6  37.6  47.8 1031.5 -9.9 -9.999 -99.9 -99.99 -9.99
2019/11/14 09:54 EST    4.74   5.13    3  267    7  37.6  47.8 1031.5 -9.9 -9.999 -99.9 -99.99 -9.99
2019/11/14 10:00 EST    4.65   5.06    3  273    6  36.9  47.8 1031.4 -9.9 -9.999 -99.9 -99.99 -9.99
2019/11/14 10:06 EST    4.55   4.94    3  283    5  37.6  47.8 1031.4 -9.9 -9.999 -99.9 -99.99 -9.99
2019/11/14 10:12 EST    4.45   4.85    2  282    5  37.6  47.8 1031.4 -9.9 -9.999 -99.9 -99.99 -9.99
2019/11/14 10:18 EST    4.35   4.73    2  265    4  38.3  47.7 1031.3 -9.9 -9.999 -99.9 -99.99 -9.99
2019/11/14 10:24 EST    4.24   4.62    2  258    5  38.8  47.5 1031.2 -9.9 -9.999 -99.9 -99.99 -9.99
2019/11/14 10:30 EST    4.13   4.48    2  258    5  38.8  47.5 1031.2 -9.9 -9.999 -99.9 -99.99 -9.99
2019/11/14 10:36 EST    4.02   4.37    4  295    6  37.9  47.5 1031.1 -9.9 -9.999 -99.9 -99.99 -9.99
2019/11/14 10:42 EST    3.90   4.25    4  290    6  37.6  47.3 1030.9 -9.9 -9.999 -99.9 -99.99 -9.99
2019/11/14 10:48 EST    3.78   4.09    3  312    5  37.6  47.3 1030.9 -9.9 -9.999 -99.9 -99.99 -9.99
2019/11/14 10:54 EST    3.66   3.94    4  306    6  37.4  47.1 1030.8 -9.9 -9.999 -99.9 -99.99 -9.99
2019/11/14 11:00 EST    3.54   3.83    4  313    7  37.4  46.9 1030.6 -9.9 -9.999 -99.9 -99.99 -9.99
2019/11/14 11:06 EST    3.42   3.68    2  271    3  37.4  46.9 1030.6 -9.9 -9.999 -99.9 -99.99 -9.99
2019/11/14 11:12 EST    3.29   3.52    3  297    4  38.8  46.9 1030.4 -9.9 -9.999 -99.9 -99.99 -9.99
2019/11/14 11:18 EST    3.17   3.38    3  318    5  38.1  46.9 1030.3 -9.9 -9.999 -99.9 -99.99 -9.99
2019/11/14 11:24 EST    3.04   3.22    3  318    5  37.8  46.9 1030.2 -9.9 -9.999 -99.9 -99.99 -9.99
2019/11/14 11:30 EST    2.92   3.10    2  298    4  37.8  46.9 1030.2 -9.9 -9.999 -99.9 -99.99 -9.99
2019/11/14 11:36 EST    2.80   2.95    3  304    4  38.3  46.8 1030.1 -9.9 -9.999 -99.9 -99.99 -9.99
2019/11/14 11:42 EST    2.67   2.82    1  301    4  38.5  46.8 1029.9 -9.9 -9.999 -99.9 -99.99 -9.99
2019/11/14 11:48 EST    2.55   2.68    0  112    1  39.0  46.8 1029.8 -9.9 -9.999 -99.9 -99.99 -9.99
2019/11/14 11:54 EST    2.43   2.58    1  331    2  39.9  46.8 1029.7 -9.9 -9.999 -99.9 -99.99 -9.99
2019/11/14 12:00 EST    2.31   2.46    0   67    1  39.6  46.8 1029.7 -9.9 -9.999 -99.9 -99.99 -9.99
2019/11/14 12:06 EST    2.19   2.33    1  144    2  41.0  46.8 1029.6 -9.9 -9.999 -99.9 -99.99 -9.99
2019/11/14 12:12 EST    2.08   2.20    3  195    4  40.3  46.8 1029.4 -9.9 -9.999 -99.9 -99.99 -9.99
2019/11/14 12:18 EST    1.96   2.10    2   76    7  39.7  46.8 1029.3 -9.9 -9.999 -99.9 -99.99 -9.99
2019/11/14 12:24 EST    1.85   1.98    3  107    5  40.3  46.8 1029.2 -9.9 -9.999 -99.9 -99.99 -9.99
2019/11/14 12:30 EST    1.74   1.84    1  164    3  41.4  46.6 1029.0 -9.9 -9.999 -99.9 -99.99 -9.99
2019/11/14 12:36 EST    1.63   1.74    5  185    6  41.4  46.6 1029.0 -9.9 -9.999 -99.9 -99.99 -9.99
2019/11/14 12:42 EST    1.53   1.63    5  170    9  41.9  46.6 1028.8 -9.9 -9.999 -99.9 -99.99 -9.99
2019/11/14 12:48 EST    1.43   1.53    9  193   10  41.7  46.6 1028.8 -9.9 -9.999 -99.9 -99.99 -9.99
2019/11/14 12:54 EST    1.33   1.43    9  188   11  42.3  46.6 1028.6 -9.9 -9.999 -99.9 -99.99 -9.99
2019/11/14 13:00 EST    1.23   1.34   10  185   11  42.4  46.6 1028.5 -9.9 -9.999 -99.9 -99.99 -9.99
2019/11/14 13:06 EST    1.14   1.25   10  212   13  42.6  46.6 1028.4 -9.9 -9.999 -99.9 -99.99 -9.99
2019/11/14 13:12 EST    1.05   1.14   10  211   12  42.8  46.6 1028.4 -9.9 -9.999 -99.9 -99.99 -9.99
2019/11/14 13:18 EST    0.96   1.05   10  198   15  43.0  46.6 1028.3 -9.9 -9.999 -99.9 -99.99 -9.99
2019/11/14 13:24 EST    0.87   1.00   13  186   16  43.3  46.9 1028.1 -9.9 -9.999 -99.9 -99.99 -9.99
2019/11/14 13:30 EST    0.79   0.90   11  198   13  43.2  46.9 1028.0 -9.9 -9.999 -99.9 -99.99 -9.99
2019/11/14 13:36 EST    0.71   0.80    9  197   13  43.5  46.8 1027.9 -9.9 -9.999 -99.9 -99.99 -9.99
2019/11/14 13:42 EST    0.63   0.75    8  206   11  43.5  46.8 1027.8 -9.9 -9.999 -99.9 -99.99 -9.99
2019/11/14 13:48 EST    0.56   0.68    7  203   12  43.7  46.8 1027.8 -9.9 -9.999 -99.9 -99.99 -9.99
2019/11/14 13:54 EST    0.49   0.62    5  176    8  44.1  46.9 1027.7 -9.9 -9.999 -99.9 -99.99 -9.99
2019/11/14 14:00 EST    0.42   0.56    7  194   12  44.4  46.9 1027.7 -9.9 -9.999 -99.9 -99.99 -9.99
2019/11/14 14:06 EST    0.36   0.51   10  210   13  44.8  46.9 1027.7 -9.9 -9.999 -99.9 -99.99 -9.99
2019/11/14 14:12 EST    0.30   0.48   11  218   13  45.3  46.8 1027.5 -9.9 -9.999 -99.9 -99.99 -9.99
2019/11/14 14:18 EST    0.25   0.43    9  193   13  45.3  46.8 1027.5 -9.9 -9.999 -99.9 -99.99 -9.99
2019/11/14 14:24 EST    0.20   0.37    9  201   11  45.1  46.6 1027.4 -9.9 -9.999 -99.9 -99.99 -9.99
2019/11/14 14:30 EST    0.16   0.33   10  211   14  45.1  46.6 1027.3 -9.9 -9.999 -99.9 -99.99 -9.99
2019/11/14 14:36 EST    0.12   0.30    7  197   11  45.0  46.4 1027.4 -9.9 -9.999 -99.9 -99.99 -9.99
2019/11/14 14:42 EST    0.08   0.27    9  204   11  45.0  46.4 1027.3 -9.9 -9.999 -99.9 -99.99 -9.99
2019/11/14 14:48 EST    0.06   0.26    9  211   11  45.0  46.4 1027.2 -9.9 -9.999 -99.9 -99.99 -9.99
2019/11/14 14:54 EST    0.04   0.24   11  212   12  45.3  46.4 1027.2 -9.9 -9.999 -99.9 -99.99 -9.99
2019/11/14 15:00 EST    0.02   0.21    9  218   13  45.1  46.2 1027.2 -9.9 -9.999 -99.9 -99.99 -9.99
2019/11/14 15:06 EST    0.01   0.22   10  228   14  45.1  46.2 1027.3 -9.9 -9.999 -99.9 -99.99 -9.99
2019/11/14 15:12 EST    0.01   0.22   11  211   14  45.1  46.2 1027.3 -9.9 -9.999 -99.9 -99.99 -9.99
2019/11/14 15:18 EST    0.02   0.24   11  212   12  45.3  46.2 1027.3 -9.9 -9.999 -99.9 -99.99 -9.99
2019/11/14 15:24 EST    0.03   0.28   11  226   12  45.3  46.2 1027.2 -9.9 -9.999 -99.9 -99.99 -9.99
2019/11/14 15:30 EST    0.05   0.31   11  224   15  45.3  46.2 1027.2 -9.9 -9.999 -99.9 -99.99 -9.99
2019/11/14 15:36 EST    0.08   0.36   10  223   12  45.3  46.2 1027.2 -9.9 -9.999 -99.9 -99.99 -9.99
2019/11/14 15:42 EST    0.12   0.42   10  220   12  45.3  46.2 1027.2 -9.9 -9.999 -99.9 -99.99 -9.99
2019/11/14 15:48 EST    0.16   0.49   11  220   12  45.1  46.2 1027.2 -9.9 -9.999 -99.9 -99.99 -9.99
2019/11/14 15:54 EST    0.21   0.59   11  218   12  45.1  46.2 1027.2 -9.9 -9.999 -99.9 -99.99 -9.99
2019/11/14 16:00 EST    0.27   0.64    9  214   12  45.1  46.2 1027.2 -9.9 -9.999 -99.9 -99.99 -9.99
2019/11/14 16:06 EST    0.34   0.73    9  216   10  45.1  46.2 1027.1 -9.9 -9.999 -99.9 -99.99 -9.99
2019/11/14 16:12 EST    0.41   0.82   12  215   13  45.1  46.2 1027.3 -9.9 -9.999 -99.9 -99.99 -9.99
2019/11/14 16:18 EST    0.49   0.95   12  211   14  45.1  46.2 1027.2 -9.9 -9.999 -99.9 -99.99 -9.99
2019/11/14 16:24 EST    0.58   1.01   10  210   12  45.0  46.2 1027.2 -9.9 -9.999 -99.9 -99.99 -9.99
2019/11/14 16:30 EST    0.67 -99.99 -999 -999 -999 -99.9 -99.9 -999.9 -9.9 -9.999 -99.9 -99.99 -9.99
2019/11/14 16:36 EST    0.77 -99.99 -999 -999 -999 -99.9 -99.9 -999.9 -9.9 -9.999 -99.9 -99.99 -9.99